Portsmouth, Virginia - KPWR: 24-hour Summary Portsmouth Weather Records Service - Portsmouth, Virginia



LOCAL CLIMATOLOGICAL DATA: This Month's Data
[updated each morning between 7AM and 9AM]
Station: Portsmouth, Virginia - KPWR Latitude: 36° 48' 04" N Longitude: 76° 19' 37" W Elevation (ground): 13 ft. Time Zone: Eastern

BE SURE TO RELOAD/REFRESH THIS SCREEN FOR DAILY UPDATES BY RIGHT-CLICKING THE BACKGROUND The data in this frame and listed below are final adjusted site data for the time period.


-----------------------------------------------------------------------------------------------------------------------------------------------------------------------------------
MONDAY			Temp	Hi	Low	Out	Dew	Wind	Wind	Wind	Hi	Hi	Wind	Heat	THW			Rain	Heat	Cool	In 	In	In 	In 	Wind	Wind	ISS 	Arc.
Date		Time	Out	Temp	Temp	Hum	Pt.	Speed	Dir	Run	Speed	Dir	Chill	Index	Index	Bar  	Rain	Rate	D-D 	D-D 	Temp	Hum	Dew	Heat	Samp	Tx 	Recept	Int.
04/01/19	1:00 a	45.3	47.4	45.3	55	30.1	12.0	NNW	12.00	25.0	NNW	38.9	44.3	37.9	30.093	0.00	0.00	0.821	0.000	78.9	31	45.7	77.2	1404	1	100.0	60
04/01/19	2:00 a	44.0	45.3	44.0	55	28.9	12.0	NNW	12.00	25.0	NNW	37.4	43.0	36.4	30.108	0.00	0.00	0.875	0.000	78.6	30	44.6	76.9	1405	1	100.0	60
04/01/19	3:00 a	41.9	44.0	41.9	59	28.6	14.0	NNW	14.00	25.0	NW	34.3	41.1	33.5	30.133	0.00	0.00	0.962	0.000	78.3	29	43.4	76.6	1405	1	100.0	60
04/01/19	4:00 a	38.3	41.9	38.3	54	23.1	14.0	NNW	14.00	29.0	NW	30.0	37.4	29.1	30.169	0.00	0.00	1.113	0.000	77.8	29	43.0	76.2	1405	1	100.0	60
04/01/19	5:00 a	36.3	38.3	36.3	53	20.8	14.0	NNW	14.00	27.0	NNW	27.4	35.4	26.5	30.205	0.00	0.00	1.196	0.000	77.6	28	41.9	76.1	1404	1	100.0	60
04/01/19	6:00 a	35.2	36.2	35.1	55	20.6	13.0	NNW	13.00	29.0	NNW	26.4	34.4	25.6	30.252	0.00	0.00	1.242	0.000	78.6	27	41.8	76.7	1405	1	100.0	60
04/01/19	7:00 a	34.6	35.1	34.6	53	19.2	14.0	NNW	14.00	26.0	N	25.3	33.8	24.5	30.265	0.00	0.00	1.267	0.000	79.5	26	41.6	77.2	1405	1	100.0	60
04/01/19	8:00 a	35.6	35.6	34.6	52	19.7	14.0	NNW	14.00	30.0	NW	26.5	34.7	25.6	30.299	0.00	0.00	1.225	0.000	79.0	25	40.2	76.7	1405	1	100.0	60
04/01/19	9:00 a	36.9	36.9	35.6	51	20.4	14.0	NNW	14.00	26.0	NW	28.2	35.9	27.2	30.315	0.00	0.00	1.171	0.000	79.3	25	40.4	76.9	1405	1	100.0	60
04/01/19	10:00 a	38.6	38.6	36.9	50	21.5	13.0	NNW	13.00	24.0	NNW	30.7	37.6	29.7	30.337	0.00	0.00	1.100	0.000	79.9	24	39.9	77.3	1405	1	100.0	60
04/01/19	11:00 a	40.2	40.2	38.6	50	23.0	12.0	NNW	12.00	23.0	NNW	33.0	39.1	31.9	30.348	0.00	0.00	1.033	0.000	80.9	24	40.7	78.2	1405	1	100.0	60
04/01/19	12:00 p	41.5	41.5	40.2	48	23.2	11.0	NNW	11.00	21.0	NW	35.0	40.4	33.9	30.337	0.00	0.00	0.979	0.000	82.1	26	43.8	79.7	1405	1	100.0	60
04/01/19	1:00 p	42.8	42.8	41.5	49	24.9	10.0	ENE	10.00	18.0	NE	36.9	41.7	35.8	30.338	0.00	0.00	0.925	0.000	82.8	25	43.4	80.2	1405	1	100.0	60
04/01/19	2:00 p	44.5	44.5	42.8	48	26.0	7.0	NW	7.00	20.0	NNW	40.6	43.3	39.4	30.324	0.00	0.00	0.854	0.000	83.5	25	44.0	81.0	1405	1	100.0	60
04/01/19	3:00 p	45.5	45.5	44.5	46	25.9	7.0	NW	7.00	18.0	NW	41.8	44.2	40.5	30.317	0.00	0.00	0.813	0.000	84.6	25	44.9	82.0	1405	1	100.0	60
04/01/19	4:00 p	47.1	47.1	45.5	42	25.2	6.0	E	6.00	15.0	NNW	44.2	45.7	42.8	30.305	0.00	0.00	0.746	0.000	87.1	24	45.9	84.2	1404	1	100.0	60
04/01/19	5:00 p	48.3	48.3	47.1	42	26.2	5.0	ENE	5.00	12.0	SE	46.2	46.9	44.8	30.306	0.00	0.00	0.696	0.000	88.0	23	45.6	84.7	1405	1	100.0	60
04/01/19	6:00 p	48.6	49.0	48.3	41	25.9	5.0	WSW	5.00	11.0	WSW	46.6	47.1	45.1	30.312	0.00	0.00	0.683	0.000	87.1	25	47.0	84.4	1405	1	100.0	60
04/01/19	7:00 p	49.2	49.5	48.3	38	24.6	5.0	NE	5.00	13.0	ENE	47.2	47.6	45.6	30.316	0.00	0.00	0.658	0.000	86.9	24	45.8	84.1	1405	1	100.0	60
04/01/19	8:00 p	46.3	49.2	46.3	51	29.1	4.0	ENE	4.00	11.0	ENE	44.6	45.2	43.5	30.327	0.00	0.00	0.779	0.000	85.0	25	45.2	82.4	1405	1	100.0	60
04/01/19	9:00 p	43.4	46.3	43.4	55	28.3	4.0	ENE	4.00	10.0	ENE	41.2	42.4	40.2	30.355	0.00	0.00	0.900	0.000	84.1	25	44.5	81.6	1405	1	100.0	60
04/01/19	10:00 p	41.0	43.4	41.0	63	29.4	4.0	SE	4.00	7.0	SE	38.5	40.3	37.8	30.360	0.00	0.00	1.000	0.000	83.0	25	43.5	80.4	1405	1	100.0	60
04/01/19	11:00 p	39.5	41.0	39.5	68	29.8	4.0	SE	4.00	6.0	ESE	36.7	38.9	36.1	30.367	0.00	0.00	1.063	0.000	82.1	25	42.8	79.6	1405	1	100.0	60
04/02/19	12:00 a	38.0	39.5	38.0	73	30.1	0.0	SE	0.00	5.0	SE	38.0	37.5	37.5	30.362	0.00	0.00	1.125	0.000	81.6	25	42.4	79.1	1405	1	100.0	60
TUESDAY			Temp	Hi	Low	Out	Dew	Wind	Wind	Wind	Hi	Hi	Wind	Heat	THW			Rain	Heat	Cool	In 	In	In 	In 	Wind	Wind	ISS 	Arc.
Date		Time	Out	Temp	Temp	Hum	Pt.	Speed	Dir	Run	Speed	Dir	Chill	Index	Index	Bar  	Rain	Rate	D-D 	D-D 	Temp	Hum	Dew	Heat	Samp	Tx 	Recept	Int.
04/02/19	1:00 a	37.1	38.0	37.1	78	30.9	0.0	SE	0.00	4.0	SE	37.1	36.8	36.8	30.358	0.00	0.00	1.163	0.000	80.3	25	41.3	77.8	1404	1	100.0	60
04/02/19	2:00 a	37.1	37.2	37.0	78	30.9	0.0	SE	0.00	6.0	SE	37.1	36.8	36.8	30.352	0.00	0.00	1.163	0.000	79.6	25	40.7	77.2	1404	1	100.0	60
04/02/19	3:00 a	36.9	37.1	36.9	78	30.7	4.0	SE	4.00	7.0	SE	33.7	36.6	33.4	30.347	0.00	0.00	1.171	0.000	79.4	25	40.5	77.0	1405	1	100.0	60
04/02/19	4:00 a	37.0	37.0	36.8	76	30.1	4.0	SE	4.00	6.0	SE	33.9	36.6	33.5	30.316	0.00	0.00	1.167	0.000	79.4	25	40.5	77.0	1405	1	100.0	60
04/02/19	5:00 a	37.7	37.9	37.0	74	30.2	5.0	ENE	5.00	12.0	NNE	33.8	37.3	33.4	30.309	0.00	0.00	1.137	0.000	79.0	25	40.2	76.7	1405	1	100.0	60
04/02/19	6:00 a	40.4	40.4	37.8	70	31.4	6.0	NE	6.00	16.0	E	36.2	39.8	35.6	30.285	0.00	0.00	1.025	0.000	78.4	25	39.7	76.4	1405	1	100.0	60
04/02/19	7:00 a	41.1	41.2	40.4	72	32.8	7.0	NE	7.00	16.0	ENE	36.4	40.6	35.9	30.269	0.00	0.00	0.996	0.000	78.7	24	38.9	76.4	1405	1	100.0	60
04/02/19	8:00 a	43.8	43.8	41.1	72	35.4	10.0	ENE	10.00	20.0	NNE	38.1	43.3	37.6	30.254	0.00	0.00	0.883	0.000	81.3	24	41.0	78.6	1405	1	100.0	60
04/02/19	9:00 a	45.6	45.6	43.8	75	38.1	12.0	ENE	12.00	23.0	NNE	39.3	45.2	38.9	30.245	0.00	0.00	0.808	0.000	82.1	24	41.7	79.5	1405	1	100.0	60
04/02/19	10:00 a	46.8	46.8	45.6	76	39.6	13.0	ENE	13.00	23.0	NE	40.3	46.5	40.0	30.231	0.00	0.00	0.758	0.000	83.0	25	43.5	80.4	1405	1	100.0	60
04/02/19	11:00 a	48.7	48.7	46.8	77	41.8	14.0	ENE	14.00	27.0	E	42.0	48.5	41.8	30.209	0.00	0.00	0.679	0.000	82.3	24	41.9	79.7	1405	1	100.0	60
04/02/19	12:00 p	49.7	49.9	48.6	78	43.1	15.0	NE	15.00	25.0	NE	42.9	49.6	42.8	30.170	0.00	0.00	0.637	0.000	80.8	25	41.7	78.2	1405	1	100.0	60
04/02/19	1:00 p	49.6	50.1	49.4	80	43.7	13.0	NE	13.00	25.0	NE	43.4	49.6	43.4	30.150	0.00	0.00	0.642	0.000	81.3	25	42.1	78.7	1404	1	100.0	60
04/02/19	2:00 p	47.9	49.7	47.9	91	45.4	11.0	NE	11.00	23.0	NE	42.4	48.1	42.6	30.139	0.10	0.30	0.712	0.000	80.7	25	41.6	78.1	1406	1	100.0	60
04/02/19	3:00 p	47.4	47.9	47.3	95	46.0	11.0	NE	11.00	26.0	NNE	41.8	47.7	42.1	30.078	0.10	0.30	0.733	0.000	80.2	26	42.2	77.8	1404	1	100.0	60
04/02/19	4:00 p	47.4	47.4	47.2	97	46.6	13.0	NE	13.00	27.0	E	40.9	47.8	41.3	30.037	0.11	0.16	0.733	0.000	80.7	26	42.6	78.2	1405	1	100.0	60
04/02/19	5:00 p	48.3	48.3	47.4	97	47.5	11.0	NE	11.00	22.0	ENE	42.8	48.8	43.3	30.004	0.11	0.16	0.696	0.000	80.5	26	42.4	78.1	1405	1	100.0	60
04/02/19	6:00 p	48.8	48.8	48.2	98	48.3	10.0	NE	10.00	19.0	NNE	43.9	49.4	44.5	29.946	0.04	0.08	0.675	0.000	80.9	26	42.8	78.4	1405	1	100.0	60
04/02/19	7:00 p	48.1	48.8	48.1	98	47.6	11.0	N	11.00	23.0	NNW	42.6	48.6	43.1	29.960	0.01	0.00	0.704	0.000	81.3	27	44.1	79.0	1405	1	100.0	60
04/02/19	8:00 p	47.9	48.1	47.9	98	47.4	12.0	NNW	12.00	22.0	NW	41.9	48.4	42.4	29.937	0.00	0.00	0.712	0.000	80.2	27	43.2	77.9	1405	1	100.0	60
04/02/19	9:00 p	47.8	47.9	47.8	97	47.0	14.0	NNW	14.00	29.0	NNW	41.0	48.3	41.5	29.935	0.00	0.00	0.717	0.000	80.0	28	44.0	77.8	1405	1	100.0	60
04/02/19	10:00 p	46.8	47.8	46.8	97	46.0	15.0	NNW	15.00	30.0	NW	39.6	47.2	40.0	29.971	0.00	0.00	0.758	0.000	79.9	28	43.9	77.7	1405	1	100.0	60
04/02/19	11:00 p	46.3	46.8	46.1	96	45.2	13.0	NW	13.00	26.0	NNW	39.7	46.6	40.0	29.995	0.00	0.00	0.779	0.000	79.9	28	43.9	77.7	1405	1	100.0	60
04/03/19	12:00 a	46.0	46.3	46.0	95	44.6	12.0	NW	12.00	23.0	NW	39.7	46.3	40.0	30.021	0.00	0.00	0.792	0.000	79.8	28	43.8	77.6	1405	1	100.0	60
WEDNESDAY		Temp	Hi	Low	Out	Dew	Wind	Wind	Wind	Hi	Hi	Wind	Heat	THW			Rain	Heat	Cool	In 	In	In 	In 	Wind	Wind	ISS 	Arc.
Date		Time	Out	Temp	Temp	Hum	Pt.	Speed	Dir	Run	Speed	Dir	Chill	Index	Index	Bar  	Rain	Rate	D-D 	D-D 	Temp	Hum	Dew	Heat	Samp	Tx 	Recept	Int.
04/03/19	1:00 a	45.9	46.1	45.9	95	44.5	10.0	NNW	10.00	19.0	NNW	40.5	46.2	40.8	30.040	0.00	0.00	0.796	0.000	79.7	28	43.7	77.6	1403	1	100.0	60
04/03/19	2:00 a	45.9	45.9	45.8	95	44.5	10.0	NW	10.00	20.0	NW	40.5	46.2	40.8	30.063	0.00	0.00	0.796	0.000	78.7	29	43.8	76.9	1405	1	100.0	60
04/03/19	3:00 a	45.3	45.9	45.3	94	43.7	7.0	WNW	7.00	17.0	NW	41.6	45.5	41.8	30.088	0.00	0.00	0.821	0.000	78.4	28	42.6	76.6	1405	1	100.0	60
04/03/19	4:00 a	44.6	45.3	44.6	95	43.3	7.0	WNW	7.00	17.0	W	40.7	44.8	40.9	30.113	0.00	0.00	0.850	0.000	78.4	29	43.5	76.7	1405	1	100.0	60
04/03/19	5:00 a	43.4	44.6	43.4	95	42.1	7.0	W	7.00	18.0	W	39.3	43.5	39.4	30.141	0.00	0.00	0.900	0.000	78.2	29	43.3	76.5	1405	1	100.0	60
04/03/19	6:00 a	42.8	43.5	42.8	95	41.5	7.0	W	7.00	16.0	NW	38.5	42.9	38.6	30.160	0.00	0.00	0.925	0.000	78.2	29	43.3	76.5	1405	1	100.0	60
04/03/19	7:00 a	42.3	42.9	42.3	94	40.7	6.0	W	6.00	16.0	W	38.5	42.4	38.6	30.190	0.00	0.00	0.946	0.000	78.4	29	43.5	76.7	1405	1	100.0	60
04/03/19	8:00 a	42.1	42.4	42.1	94	40.5	5.0	WSW	5.00	14.0	WSW	38.9	42.2	39.0	30.227	0.00	0.00	0.954	0.000	78.6	29	43.7	76.8	1405	1	100.0	60
04/03/19	9:00 a	43.3	43.3	42.1	93	41.4	7.0	WSW	7.00	17.0	SW	39.2	43.4	39.3	30.250	0.00	0.00	0.904	0.000	79.4	28	43.4	77.3	1405	1	100.0	60
04/03/19	10:00 a	47.2	47.2	43.3	83	42.3	7.0	WSW	7.00	17.0	WSW	43.8	47.1	43.7	30.259	0.00	0.00	0.742	0.000	80.7	28	44.6	78.5	1405	1	100.0	60
04/03/19	11:00 a	52.3	52.3	47.2	72	43.5	10.0	WSW	10.00	18.0	W	48.0	51.7	47.4	30.261	0.00	0.00	0.529	0.000	80.8	29	45.6	78.7	1405	1	100.0	60
04/03/19	12:00 p	57.8	57.8	52.4	58	43.1	10.0	WSW	10.00	22.0	W	54.4	56.4	53.0	30.260	0.00	0.00	0.300	0.000	82.9	28	46.4	80.7	1404	1	100.0	60
04/03/19	1:00 p	61.1	61.1	57.8	49	41.8	10.0	W	10.00	19.0	WSW	58.2	59.0	56.1	30.247	0.00	0.00	0.163	0.000	83.7	29	48.1	81.8	1405	1	100.0	60
04/03/19	2:00 p	63.7	63.7	61.1	41	39.5	7.0	W	7.00	19.0	W	63.7	61.1	61.1	30.228	0.00	0.00	0.054	0.000	84.9	29	49.1	82.9	1405	1	100.0	60
04/03/19	3:00 p	66.0	66.0	63.7	40	41.0	10.0	SW	10.00	19.0	W	64.0	63.4	61.4	30.205	0.00	0.00	0.000	0.042	86.4	29	50.4	84.5	1405	1	100.0	60
04/03/19	4:00 p	67.8	67.9	66.0	36	39.9	10.0	SW	10.00	24.0	SW	65.7	64.9	62.8	30.186	0.00	0.00	0.000	0.117	91.1	27	52.5	89.4	1405	1	100.0	60
04/03/19	5:00 p	68.0	68.2	67.7	37	40.7	10.0	WSW	10.00	22.0	SW	65.9	65.2	63.1	30.185	0.00	0.00	0.000	0.125	91.8	27	53.1	90.2	1405	1	100.0	60
04/03/19	6:00 p	68.4	68.4	68.0	36	40.4	7.0	WSW	7.00	22.0	SW	68.4	65.5	65.5	30.196	0.00	0.00	0.000	0.142	91.3	27	52.6	89.6	1405	1	100.0	60
04/03/19	7:00 p	68.5	69.0	68.4	36	40.5	10.0	SW	10.00	21.0	SW	66.4	65.6	63.5	30.208	0.00	0.00	0.000	0.146	90.2	28	52.7	88.6	1405	1	100.0	60
04/03/19	8:00 p	64.2	68.5	64.2	39	38.7	6.0	SW	6.00	15.0	SSW	64.2	61.4	61.4	30.213	0.00	0.00	0.033	0.000	88.7	28	51.4	86.2	1405	1	100.0	60
04/03/19	9:00 p	60.1	64.2	60.1	45	38.7	5.0	SW	5.00	10.0	SW	60.1	57.8	57.8	30.234	0.00	0.00	0.204	0.000	87.4	29	51.2	85.2	1405	1	100.0	60
04/03/19	10:00 p	57.3	60.1	57.3	53	40.3	6.0	S	6.00	11.0	SSW	56.4	55.6	54.7	30.254	0.00	0.00	0.321	0.000	86.0	28	49.1	83.9	1405	1	100.0	60
04/03/19	11:00 p	56.0	57.3	56.0	57	41.0	6.0	SSW	6.00	14.0	SW	54.8	54.5	53.3	30.265	0.00	0.00	0.375	0.000	84.8	28	48.1	82.7	1405	1	100.0	60
04/04/19	12:00 a	54.6	56.0	54.6	63	42.3	5.0	SSW	5.00	14.0	SW	53.6	53.5	52.5	30.272	0.00	0.00	0.433	0.000	84.2	28	47.6	82.2	1404	1	100.0	60
THURSDAY		Temp	Hi	Low	Out	Dew	Wind	Wind	Wind	Hi	Hi	Wind	Heat	THW			Rain	Heat	Cool	In 	In	In 	In 	Wind	Wind	ISS 	Arc.
Date		Time	Out	Temp	Temp	Hum	Pt.	Speed	Dir	Run	Speed	Dir	Chill	Index	Index	Bar  	Rain	Rate	D-D 	D-D 	Temp	Hum	Dew	Heat	Samp	Tx 	Recept	Int.
04/04/19	1:00 a	52.7	54.6	52.7	67	42.0	5.0	SSW	5.00	11.0	SSW	51.4	51.9	50.6	30.291	0.00	0.00	0.512	0.000	83.0	29	47.5	80.9	1403	1	100.0	60
04/04/19	2:00 a	51.4	52.7	51.4	72	42.7	5.0	SSW	5.00	11.0	SSW	49.9	50.9	49.4	30.297	0.00	0.00	0.567	0.000	81.8	29	46.4	79.8	1405	1	100.0	60
04/04/19	3:00 a	50.5	51.4	50.5	75	42.9	5.0	SW	5.00	10.0	SW	48.8	50.3	48.6	30.299	0.00	0.00	0.604	0.000	81.4	29	46.1	79.3	1405	1	100.0	60
04/04/19	4:00 a	49.0	50.5	49.0	77	42.1	4.0	SW	4.00	7.0	NW	47.7	48.8	47.5	30.315	0.00	0.00	0.667	0.000	80.3	29	45.1	78.2	1405	1	100.0	60
04/04/19	5:00 a	46.3	49.0	46.3	81	40.8	0.0	NW	0.00	5.0	NW	46.3	46.1	46.1	30.330	0.00	0.00	0.779	0.000	79.9	29	44.8	77.8	1405	1	100.0	60
04/04/19	6:00 a	44.6	46.3	44.6	85	40.4	0.0	NW	0.00	5.0	NW	44.6	44.5	44.5	30.344	0.00	0.00	0.850	0.000	79.8	29	44.7	77.7	1405	1	100.0	60
04/04/19	7:00 a	43.7	44.6	43.7	88	40.4	0.0	NW	0.00	5.0	NW	43.7	43.7	43.7	30.367	0.00	0.00	0.887	0.000	80.3	29	45.1	78.2	1405	1	100.0	60
04/04/19	8:00 a	44.4	44.4	43.6	91	41.9	0.0	NW	0.00	4.0	NW	44.4	44.5	44.5	30.384	0.00	0.00	0.858	0.000	80.4	29	45.2	78.3	1405	1	100.0	60
04/04/19	9:00 a	52.3	52.3	44.4	79	46.0	4.0	NNW	4.00	7.0	NE	51.5	52.0	51.2	30.396	0.00	0.00	0.529	0.000	79.7	29	44.6	77.7	1405	1	100.0	60
04/04/19	10:00 a	60.3	60.3	52.3	48	40.5	10.0	NE	10.00	19.0	NE	57.3	58.2	55.2	30.394	0.00	0.00	0.196	0.000	81.6	31	48.0	79.8	1404	1	100.0	60
04/04/19	11:00 a	63.6	63.6	60.4	36	36.1	11.0	ENE	11.00	19.0	NE	60.5	60.5	57.4	30.408	0.00	0.00	0.058	0.000	82.2	31	48.6	80.4	1405	1	100.0	60
04/04/19	12:00 p	64.0	64.0	63.5	33	34.3	13.0	ENE	13.00	21.0	NE	59.8	60.6	56.4	30.415	0.00	0.00	0.042	0.000	83.0	30	48.4	81.0	1405	1	100.0	60
04/04/19	1:00 p	65.1	65.1	64.0	30	32.9	11.0	ENE	11.00	20.0	ENE	62.2	61.4	58.5	30.406	0.00	0.00	0.000	0.004	84.1	30	49.3	82.4	1405	1	100.0	60
04/04/19	2:00 p	65.6	66.1	65.1	32	34.9	10.0	ENE	10.00	20.0	ENE	63.5	62.2	60.1	30.380	0.00	0.00	0.000	0.025	85.4	29	49.5	83.5	1405	1	100.0	60
04/04/19	3:00 p	65.8	66.7	65.6	30	33.5	10.0	E	10.00	19.0	NE	63.8	62.2	60.2	30.367	0.00	0.00	0.000	0.033	86.8	30	51.6	85.0	1405	1	100.0	60
04/04/19	4:00 p	65.9	65.9	65.2	34	36.7	10.0	ENE	10.00	18.0	ENE	63.9	62.7	60.7	30.348	0.00	0.00	0.000	0.038	90.9	28	53.3	89.4	1405	1	100.0	60
04/04/19	5:00 p	65.1	66.3	65.1	32	34.5	10.0	E	10.00	17.0	SSE	62.9	61.6	59.4	30.337	0.00	0.00	0.000	0.004	91.3	28	53.6	89.9	1405	1	100.0	60
04/04/19	6:00 p	63.9	65.1	63.7	35	35.7	7.0	E	7.00	17.0	S	63.9	60.7	60.7	30.339	0.00	0.00	0.046	0.000	90.6	27	52.0	88.8	1405	1	100.0	60
04/04/19	7:00 p	65.2	65.5	63.9	33	35.4	7.0	SSE	7.00	16.0	SSE	65.2	61.8	61.8	30.345	0.00	0.00	0.000	0.008	88.9	27	50.6	86.3	1405	1	100.0	60
04/04/19	8:00 p	60.4	65.2	60.4	43	37.8	5.0	SE	5.00	12.0	SE	60.4	57.9	57.9	30.350	0.00	0.00	0.192	0.000	87.7	26	48.6	84.9	1405	1	100.0	60
04/04/19	9:00 p	56.2	60.4	56.2	57	41.2	0.0	ESE	0.00	6.0	E	56.2	54.7	54.7	30.351	0.00	0.00	0.367	0.000	86.1	27	48.2	83.9	1405	1	100.0	60
04/04/19	10:00 p	54.5	56.2	54.5	63	42.2	4.0	ESE	4.00	10.0	SE	54.1	53.4	53.0	30.353	0.00	0.00	0.438	0.000	84.6	27	46.9	82.4	1405	1	100.0	60
04/04/19	11:00 p	53.1	54.5	53.1	74	45.0	4.0	SE	4.00	10.0	SSE	52.4	52.6	51.9	30.340	0.00	0.00	0.496	0.000	83.5	27	46.0	81.2	1405	1	100.0	60
04/05/19	12:00 a	52.3	53.1	52.3	78	45.6	5.0	SSE	5.00	11.0	SSE	50.9	52.0	50.6	30.339	0.00	0.00	0.529	0.000	83.0	27	45.6	80.6	1404	1	100.0	60
FRIDAY			Temp	Hi	Low	Out	Dew	Wind	Wind	Wind	Hi	Hi	Wind	Heat	THW			Rain	Heat	Cool	In 	In	In 	In 	Wind	Wind	ISS 	Arc.
Date		Time	Out	Temp	Temp	Hum	Pt.	Speed	Dir	Run	Speed	Dir	Chill	Index	Index	Bar  	Rain	Rate	D-D 	D-D 	Temp	Hum	Dew	Heat	Samp	Tx 	Recept	Int.
04/05/19	1:00 a	52.1	52.3	52.1	81	46.4	5.0	SE	5.00	12.0	SE	50.7	51.9	50.5	30.317	0.00	0.00	0.538	0.000	81.8	27	44.5	79.5	1403	1	100.0	60
04/05/19	2:00 a	52.3	52.4	52.1	79	46.0	5.0	SE	5.00	10.0	SSE	50.9	52.0	50.6	30.311	0.00	0.00	0.529	0.000	81.5	28	45.2	79.3	1405	1	100.0	60
04/05/19	3:00 a	52.8	52.8	52.3	81	47.1	5.0	SSE	5.00	12.0	SSE	51.5	52.6	51.3	30.301	0.00	0.00	0.508	0.000	81.3	28	45.1	79.1	1405	1	100.0	60
04/05/19	4:00 a	52.4	52.8	52.4	84	47.7	4.0	SSE	4.00	10.0	SSE	51.6	52.3	51.5	30.282	0.00	0.00	0.525	0.000	80.9	28	44.7	78.7	1405	1	100.0	60
04/05/19	5:00 a	52.5	52.5	52.3	87	48.7	0.0	SSE	0.00	6.0	SSE	52.5	52.5	52.5	30.273	0.00	0.00	0.521	0.000	80.3	28	44.2	78.1	1405	1	100.0	60
04/05/19	6:00 a	52.9	52.9	52.5	88	49.4	4.0	SSE	4.00	7.0	ESE	52.2	52.9	52.2	30.272	0.00	0.00	0.504	0.000	80.4	28	44.3	78.2	1405	1	100.0	60
04/05/19	7:00 a	53.4	53.4	52.9	86	49.3	0.0	ESE	0.00	6.0	ESE	53.4	53.3	53.3	30.276	0.00	0.00	0.483	0.000	80.7	28	44.6	78.5	1405	1	100.0	60
04/05/19	8:00 a	54.6	54.6	53.4	83	49.5	4.0	ENE	4.00	7.0	ENE	54.2	54.4	54.0	30.283	0.00	0.00	0.433	0.000	80.8	29	45.6	78.7	1405	1	100.0	60
04/05/19	9:00 a	55.5	55.5	54.6	88	52.0	4.0	ENE	4.00	10.0	NE	55.2	55.5	55.2	30.288	0.00	0.00	0.396	0.000	80.0	29	44.9	77.9	1405	1	100.0	60
04/05/19	10:00 a	56.6	56.6	55.5	91	54.0	6.0	ENE	6.00	15.0	NE	55.5	56.7	55.6	30.297	0.01	0.00	0.350	0.000	80.8	30	46.5	78.8	1405	1	100.0	60
04/05/19	11:00 a	55.4	56.8	55.4	92	53.1	7.0	ENE	7.00	18.0	E	53.7	55.5	53.8	30.301	0.01	0.00	0.400	0.000	80.2	30	45.9	78.2	1404	1	100.0	60
04/05/19	12:00 p	54.7	55.4	54.5	94	53.0	10.0	ENE	10.00	21.0	ENE	50.8	54.9	51.0	30.262	0.01	0.00	0.429	0.000	80.7	30	46.4	78.7	1405	1	100.0	60
04/05/19	1:00 p	57.4	57.4	54.7	92	55.1	10.0	ENE	10.00	17.0	NE	53.9	57.6	54.1	30.220	0.00	0.00	0.317	0.000	80.3	30	46.0	78.3	1405	1	100.0	60
04/05/19	2:00 p	61.7	61.7	57.5	81	55.8	7.0	E	7.00	19.0	ENE	61.3	61.9	61.5	30.190	0.00	0.00	0.137	0.000	80.7	30	46.4	78.7	1405	1	100.0	60
04/05/19	3:00 p	62.7	62.7	61.7	77	55.4	6.0	SE	6.00	17.0	SE	62.7	62.7	62.7	30.191	0.00	0.00	0.096	0.000	80.9	30	46.6	78.9	1405	1	100.0	60
04/05/19	4:00 p	59.9	62.8	59.9	87	56.0	5.0	ENE	5.00	14.0	SSE	59.9	60.1	60.1	30.169	0.01	0.00	0.212	0.000	81.6	30	47.2	79.7	1405	1	100.0	60
04/05/19	5:00 p	58.4	59.9	58.4	91	55.8	5.0	ESE	5.00	10.0	ENE	58.1	58.6	58.3	30.149	0.00	0.00	0.275	0.000	81.0	31	47.5	79.1	1405	1	100.0	60
04/05/19	6:00 p	57.2	58.4	57.2	94	55.5	5.0	ENE	5.00	14.0	ENE	56.6	57.4	56.8	30.127	0.01	0.00	0.325	0.000	80.4	31	47.0	78.5	1405	1	100.0	60
04/05/19	7:00 p	55.8	57.2	55.8	95	54.4	5.0	ENE	5.00	12.0	ENE	55.1	56.0	55.3	30.127	0.01	0.00	0.383	0.000	81.0	31	47.5	79.1	1405	1	100.0	60
04/05/19	8:00 p	55.7	55.8	55.7	96	54.6	4.0	E	4.00	7.0	NW	55.4	55.9	55.6	30.130	0.00	0.00	0.387	0.000	81.0	31	47.5	79.1	1405	1	100.0	60
04/05/19	9:00 p	55.5	55.7	55.5	96	54.4	0.0	NNW	0.00	5.0	NNW	55.5	55.7	55.7	30.148	0.00	0.00	0.396	0.000	81.4	32	48.7	79.7	1405	1	100.0	60
04/05/19	10:00 p	55.9	55.9	55.4	97	55.1	0.0	NNW	0.00	5.0	NNW	55.9	56.2	56.2	30.156	0.00	0.00	0.379	0.000	80.5	32	47.9	78.7	1405	1	100.0	60
04/05/19	11:00 p	56.3	56.3	55.9	97	55.5	0.0	NNW	0.00	4.0	NNW	56.3	56.6	56.6	30.156	0.00	0.00	0.363	0.000	80.7	32	48.1	78.9	1405	1	100.0	60
04/06/19	12:00 a	56.5	56.6	56.3	98	55.9	0.0	NNW	0.00	5.0	NNW	56.5	56.8	56.8	30.141	0.00	0.00	0.354	0.000	80.9	32	48.3	79.1	1404	1	100.0	60
SATURDAY		Temp	Hi	Low	Out	Dew	Wind	Wind	Wind	Hi	Hi	Wind	Heat	THW			Rain	Heat	Cool	In 	In	In 	In 	Wind	Wind	ISS 	Arc.
Date		Time	Out	Temp	Temp	Hum	Pt.	Speed	Dir	Run	Speed	Dir	Chill	Index	Index	Bar  	Rain	Rate	D-D 	D-D 	Temp	Hum	Dew	Heat	Samp	Tx 	Recept	Int.
04/06/19	1:00 a	56.2	56.6	56.2	97	55.4	4.0	NNW	4.00	6.0	NNW	56.0	56.5	56.3	30.127	0.00	0.00	0.367	0.000	80.3	32	47.7	78.5	1403	1	100.0	60
04/06/19	2:00 a	55.5	56.2	55.5	98	54.9	5.0	NNW	5.00	11.0	NNW	54.7	55.8	55.0	30.118	0.00	0.00	0.396	0.000	79.7	32	47.2	78.0	1405	1	100.0	60
04/06/19	3:00 a	54.7	55.5	54.7	97	53.9	4.0	NNW	4.00	10.0	NNW	54.3	55.0	54.6	30.107	0.00	0.00	0.429	0.000	79.0	32	46.6	77.4	1405	1	100.0	60
04/06/19	4:00 a	53.9	54.7	53.9	97	53.1	5.0	NNW	5.00	10.0	N	52.8	54.2	53.1	30.107	0.00	0.00	0.462	0.000	78.4	32	46.1	76.9	1405	1	100.0	60
04/06/19	5:00 a	54.1	54.1	53.9	98	53.5	5.0	NNW	5.00	14.0	NW	53.0	54.4	53.3	30.106	0.00	0.00	0.454	0.000	78.9	32	46.5	77.3	1405	1	100.0	60
04/06/19	6:00 a	54.1	54.1	54.0	98	53.5	5.0	NE	5.00	10.0	NNW	53.0	54.4	53.3	30.122	0.00	0.00	0.454	0.000	78.2	33	46.7	76.8	1405	1	100.0	60
04/06/19	7:00 a	53.6	54.1	53.6	98	53.0	6.0	NE	6.00	15.0	NNW	51.9	53.9	52.2	30.144	0.00	0.00	0.475	0.000	78.7	33	47.2	77.3	1405	1	100.0	60
04/06/19	8:00 a	53.1	53.6	53.1	98	52.6	7.0	NE	7.00	15.0	NE	50.9	53.5	51.3	30.163	0.00	0.00	0.496	0.000	79.3	33	47.7	77.8	1405	1	100.0	60
04/06/19	9:00 a	52.9	53.2	52.8	98	52.4	10.0	NE	10.00	18.0	NE	48.7	53.3	49.1	30.176	0.00	0.00	0.504	0.000	80.4	33	48.7	78.7	1405	1	100.0	60
04/06/19	10:00 a	53.1	53.1	52.7	97	52.3	7.0	NE	7.00	15.0	NE	50.9	53.4	51.2	30.185	0.00	0.00	0.496	0.000	79.8	33	48.1	78.2	1405	1	100.0	60
04/06/19	11:00 a	53.4	53.4	53.1	96	52.3	10.0	NE	10.00	18.0	ENE	49.3	53.7	49.6	30.202	0.00	0.00	0.483	0.000	80.9	33	49.1	79.2	1404	1	100.0	60
04/06/19	12:00 p	55.6	55.7	53.4	93	53.6	7.0	NE	7.00	18.0	NNW	53.9	55.8	54.1	30.205	0.00	0.00	0.392	0.000	80.8	32	48.2	79.0	1405	1	100.0	60
04/06/19	1:00 p	57.4	57.4	55.7	90	54.5	7.0	NNW	7.00	16.0	NNW	56.1	57.5	56.2	30.201	0.00	0.00	0.317	0.000	81.1	34	50.1	79.5	1405	1	100.0	60
04/06/19	2:00 p	57.5	57.7	57.4	93	55.5	7.0	NNW	7.00	15.0	NW	56.2	57.7	56.4	30.192	0.00	0.00	0.313	0.000	82.1	33	50.1	80.6	1405	1	100.0	60
04/06/19	3:00 p	57.6	57.7	57.3	94	55.9	7.0	NE	7.00	15.0	NW	56.3	57.8	56.5	30.175	0.01	0.00	0.308	0.000	82.1	34	50.9	80.7	1405	1	100.0	60
04/06/19	4:00 p	58.5	58.5	57.6	90	55.6	7.0	NE	7.00	15.0	E	57.4	58.6	57.5	30.175	0.00	0.00	0.271	0.000	82.5	35	52.1	81.3	1405	1	100.0	60
04/06/19	5:00 p	59.6	59.6	58.5	86	55.4	7.0	ENE	7.00	16.0	E	58.7	59.7	58.8	30.165	0.00	0.00	0.225	0.000	84.2	33	52.0	83.1	1405	1	100.0	60
04/06/19	6:00 p	59.9	60.0	59.6	85	55.4	7.0	ENE	7.00	15.0	ENE	59.1	60.0	59.2	30.172	0.00	0.00	0.212	0.000	85.2	35	54.5	84.4	1405	1	100.0	60
04/06/19	7:00 p	58.3	60.4	58.3	86	54.1	6.0	NE	6.00	13.0	ENE	57.6	58.3	57.6	30.186	0.00	0.00	0.279	0.000	84.6	34	53.1	83.6	1405	1	100.0	60
04/06/19	8:00 p	57.4	58.4	57.4	90	54.5	5.0	NE	5.00	11.0	NE	56.9	57.5	57.0	30.203	0.00	0.00	0.317	0.000	83.3	35	52.8	82.3	1405	1	100.0	60
04/06/19	9:00 p	56.4	57.4	56.4	90	53.5	0.0	NE	0.00	6.0	NE	56.4	56.5	56.5	30.215	0.00	0.00	0.358	0.000	82.6	34	51.4	81.2	1405	1	100.0	60
04/06/19	10:00 p	54.2	56.4	54.2	92	51.9	0.0	NE	0.00	4.0	NE	54.2	54.3	54.3	30.215	0.00	0.00	0.450	0.000	81.7	34	50.6	80.2	1405	1	100.0	60
04/06/19	11:00 p	52.2	54.2	52.2	93	50.2	0.0	NE	0.00	4.0	NE	52.2	52.5	52.5	30.235	0.00	0.00	0.533	0.000	81.4	34	50.3	79.9	1405	1	100.0	60
04/07/19	12:00 a	50.8	52.2	50.8	94	49.1	0.0	NE	0.00	5.0	NE	50.8	51.2	51.2	30.230	0.00	0.00	0.592	0.000	80.3	34	49.4	78.7	1404	1	100.0	60
SUNDAY			Temp	Hi	Low	Out	Dew	Wind	Wind	Wind	Hi	Hi	Wind	Heat	THW			Rain	Heat	Cool	In 	In	In 	In 	Wind	Wind	ISS 	Arc.
Date		Time	Out	Temp	Temp	Hum	Pt.	Speed	Dir	Run	Speed	Dir	Chill	Index	Index	Bar  	Rain	Rate	D-D 	D-D 	Temp	Hum	Dew	Heat	Samp	Tx 	Recept	Int.
04/07/19	1:00 a	49.5	50.8	49.5	95	48.1	0.0	NE	0.00	4.0	NE	49.5	50.0	50.0	30.249	0.00	0.00	0.646	0.000	80.4	34	49.5	78.8	1403	1	100.0	60
04/07/19	2:00 a	48.8	49.5	48.8	95	47.4	0.0	NE	0.00	5.0	NE	48.8	49.3	49.3	30.235	0.00	0.00	0.675	0.000	79.3	34	48.5	77.9	1405	1	100.0	60
04/07/19	3:00 a	48.0	48.8	47.9	96	46.9	0.0	NE	0.00	5.0	NE	48.0	48.4	48.4	30.220	0.00	0.00	0.708	0.000	78.9	34	48.1	77.6	1405	1	100.0	60
04/07/19	4:00 a	47.7	48.0	47.7	97	46.9	0.0	NE	0.00	4.0	NE	47.7	48.2	48.2	30.205	0.00	0.00	0.721	0.000	78.3	34	47.6	77.0	1405	1	100.0	60
04/07/19	5:00 a	47.1	47.7	47.0	97	46.3	4.0	ENE	4.00	5.0	NE	45.5	47.5	45.9	30.230	0.00	0.00	0.746	0.000	78.2	34	47.5	76.8	1405	1	100.0	60
04/07/19	6:00 a	47.3	47.3	47.1	98	46.8	4.0	NW	4.00	7.0	NW	45.8	47.7	46.2	30.238	0.00	0.00	0.738	0.000	78.3	34	47.6	77.0	1405	1	100.0	60
04/07/19	7:00 a	46.9	47.4	46.9	98	46.4	4.0	NW	4.00	6.0	N	45.3	47.3	45.7	30.260	0.00	0.00	0.754	0.000	78.2	34	47.5	76.8	1405	1	100.0	60
04/07/19	8:00 a	48.6	48.6	46.9	99	48.3	4.0	S	4.00	6.0	S	47.3	49.2	47.9	30.273	0.00	0.00	0.683	0.000	78.9	33	47.3	77.5	1405	1	100.0	60
04/07/19	9:00 a	53.0	53.0	48.6	100	53.0	0.0	S	0.00	6.0	ESE	53.0	53.4	53.4	30.276	0.00	0.00	0.500	0.000	79.6	33	48.0	78.0	1405	1	100.0	60
04/07/19	10:00 a	57.4	57.4	53.0	98	56.8	4.0	S	4.00	7.0	S	57.4	57.7	57.7	30.266	0.00	0.00	0.317	0.000	81.7	33	49.8	80.1	1405	1	100.0	60
04/07/19	11:00 a	63.0	63.0	57.4	83	57.8	5.0	SSE	5.00	12.0	SSE	63.0	63.4	63.4	30.271	0.00	0.00	0.083	0.000	82.2	33	50.2	80.7	1405	1	100.0	60
04/07/19	12:00 p	67.0	67.0	63.0	70	56.9	6.0	S	6.00	15.0	SSE	67.0	67.4	67.4	30.254	0.00	0.00	0.000	0.083	83.4	33	51.3	82.0	1405	1	100.0	60
04/07/19	1:00 p	70.0	70.0	67.0	67	58.5	7.0	SSE	7.00	16.0	SSE	70.0	69.9	69.9	30.220	0.00	0.00	0.000	0.208	84.7	34	53.2	83.7	1404	1	100.0	60
04/07/19	2:00 p	71.8	71.8	70.0	59	56.7	10.0	SE	10.00	17.0	SSE	69.7	71.5	69.4	30.200	0.00	0.00	0.000	0.283	86.6	34	54.9	85.6	1405	1	100.0	60
04/07/19	3:00 p	72.7	72.7	71.8	59	57.5	12.0	SSE	12.00	21.0	SSE	69.7	72.9	69.9	30.173	0.00	0.00	0.000	0.321	88.5	34	56.6	87.3	1405	1	100.0	60
04/07/19	4:00 p	72.2	72.8	72.2	56	55.6	12.0	SSE	12.00	22.0	SSE	69.2	71.9	68.9	30.145	0.00	0.00	0.000	0.300	93.3	31	58.2	93.4	1405	1	100.0	60
04/07/19	5:00 p	71.4	72.2	71.4	56	54.9	12.0	SSE	12.00	22.0	SSE	68.3	70.7	67.6	30.135	0.00	0.00	0.000	0.267	93.7	31	58.5	93.9	1405	1	100.0	60
04/07/19	6:00 p	71.0	71.4	71.0	55	54.0	12.0	SSE	12.00	20.0	SSE	67.9	70.0	66.9	30.132	0.00	0.00	0.000	0.250	92.9	31	57.8	92.8	1405	1	100.0	60
04/07/19	7:00 p	69.2	71.0	69.2	56	52.8	11.0	SSE	11.00	19.0	SSE	66.6	68.2	65.6	30.130	0.00	0.00	0.000	0.175	91.1	32	57.1	90.7	1405	1	100.0	60
04/07/19	8:00 p	65.6	69.2	65.6	67	54.3	7.0	SSE	7.00	16.0	SSE	65.6	65.5	65.5	30.132	0.00	0.00	0.000	0.025	89.4	32	55.7	88.3	1405	1	100.0	60
04/07/19	9:00 p	62.6	65.6	62.6	79	56.0	7.0	SSE	7.00	15.0	SSE	62.4	62.8	62.6	30.139	0.00	0.00	0.100	0.000	87.6	34	55.8	86.3	1405	1	100.0	60
04/07/19	10:00 p	61.3	62.6	61.3	84	56.4	10.0	SSE	10.00	15.0	SSE	58.5	61.5	58.7	30.121	0.00	0.00	0.154	0.000	86.3	34	54.6	85.4	1405	1	100.0	60
04/07/19	11:00 p	60.0	61.3	60.0	89	56.7	7.0	S	7.00	13.0	S	59.2	60.3	59.5	30.107	0.00	0.00	0.208	0.000	85.1	34	53.6	84.1	1405	1	100.0	60
MONDAY			Temp	Hi	Low	Out	Dew	Wind	Wind	Wind	Hi	Hi	Wind	Heat	THW			Rain	Heat	Cool	In 	In	In 	In 	Wind	Wind	ISS 	Arc.
Date		Time	Out	Temp	Temp	Hum	Pt.	Speed	Dir	Run	Speed	Dir	Chill	Index	Index	Bar  	Rain	Rate	D-D 	D-D 	Temp	Hum	Dew	Heat	Samp	Tx 	Recept	Int.
04/08/19	1:00 a	59.2	59.2	59.0	89	56.0	7.0	S	7.00	15.0	SSE	58.2	59.4	58.4	30.101	0.00	0.00	0.242	0.000	84.1	34	52.7	83.2	1404	1	100.0	60
04/08/19	2:00 a	59.2	59.3	59.1	88	55.6	6.0	SSW	6.00	13.0	S	58.6	59.3	58.7	30.096	0.00	0.00	0.242	0.000	83.3	34	52.0	82.1	1404	1	100.0	60
04/08/19	3:00 a	59.4	59.5	59.1	88	55.8	6.0	SSW	6.00	19.0	SSW	58.9	59.6	59.1	30.049	0.00	0.00	0.233	0.000	82.6	34	51.4	81.2	1405	1	100.0	60
04/08/19	4:00 a	59.0	59.4	59.0	90	56.1	5.0	SSW	5.00	15.0	S	58.8	59.2	59.0	30.024	0.00	0.00	0.250	0.000	81.9	34	50.8	80.5	1405	1	100.0	60
04/08/19	5:00 a	58.9	59.0	58.9	93	56.9	6.0	SSW	6.00	14.0	SSE	58.3	59.2	58.6	30.011	0.00	0.00	0.254	0.000	81.3	35	51.0	79.9	1405	1	100.0	60
04/08/19	6:00 a	58.6	58.9	58.6	94	56.9	6.0	SSW	6.00	15.0	S	57.9	58.9	58.2	30.015	0.00	0.00	0.267	0.000	81.6	35	51.3	80.2	1405	1	100.0	60
04/08/19	7:00 a	58.5	58.6	58.4	96	57.4	6.0	SSW	6.00	14.0	SSE	57.8	58.9	58.2	30.018	0.00	0.00	0.271	0.000	80.8	35	50.6	79.3	1405	1	100.0	60
04/08/19	8:00 a	60.4	60.4	58.4	97	59.5	6.0	SW	6.00	16.0	WSW	60.1	60.9	60.6	30.028	0.00	0.00	0.192	0.000	80.8	35	50.6	79.3	1405	1	100.0	60
04/08/19	9:00 a	64.9	64.9	60.5	94	63.1	10.0	SW	10.00	21.0	SW	62.7	66.0	63.8	30.014	0.00	0.00	0.004	0.000	81.1	36	51.6	79.7	1405	1	100.0	60
04/08/19	10:00 a	68.0	68.0	64.9	91	65.3	10.0	SW	10.00	26.0	SW	65.9	69.7	67.6	29.999	0.00	0.00	0.000	0.125	81.5	36	52.0	80.2	1405	1	100.0	60
04/08/19	11:00 a	71.9	71.9	68.1	84	66.8	11.0	SW	11.00	27.0	SW	69.3	73.6	71.0	29.992	0.00	0.00	0.000	0.288	82.9	38	54.7	82.2	1405	1	100.0	60
04/08/19	12:00 p	75.6	75.6	71.9	79	68.6	10.0	SSW	10.00	22.0	SW	73.7	78.2	76.3	29.944	0.00	0.00	0.000	0.442	84.4	38	56.0	84.2	1404	1	100.0	60
04/08/19	1:00 p	79.7	79.7	75.6	72	69.9	11.0	SW	11.00	23.0	SW	77.8	82.6	80.7	29.912	0.00	0.00	0.000	0.612	86.3	39	58.4	86.4	1406	1	100.0	60
04/08/19	2:00 p	82.5	82.5	79.8	65	69.5	11.0	SW	11.00	24.0	WNW	80.9	86.0	84.4	29.876	0.00	0.00	0.000	0.729	88.4	39	60.3	88.6	1404	1	100.0	60
04/08/19	3:00 p	84.6	84.6	82.5	60	69.2	11.0	SW	11.00	28.0	SW	83.4	88.7	87.5	29.848	0.00	0.00	0.000	0.817	90.5	39	62.2	91.7	1405	1	100.0	60
04/08/19	4:00 p	85.5	85.9	84.6	56	68.0	11.0	SW	11.00	26.0	S	84.4	89.1	88.0	29.816	0.00	0.00	0.000	0.854	93.6	37	63.4	95.9	1405	1	100.0	60
04/08/19	5:00 p	84.1	85.5	84.1	57	67.2	10.0	SW	10.00	22.0	SW	83.0	87.2	86.1	29.795	0.00	0.00	0.000	0.796	93.6	38	64.2	96.4	1405	1	100.0	60
04/08/19	6:00 p	83.4	84.1	83.4	59	67.6	10.0	SW	10.00	24.0	WSW	82.2	86.3	85.1	29.782	0.00	0.00	0.000	0.767	93.2	38	63.8	95.7	1405	1	100.0	60
04/08/19	7:00 p	81.1	83.4	81.1	62	66.8	7.0	SW	7.00	19.0	SW	81.1	83.2	83.2	29.789	0.00	0.00	0.000	0.671	92.7	38	63.4	94.9	1405	1	100.0	60
04/08/19	8:00 p	78.9	81.1	78.9	73	69.5	7.0	SW	7.00	19.0	SW	78.9	81.6	81.6	29.803	0.01	0.00	0.000	0.579	91.3	39	62.9	93.0	1405	1	100.0	60
04/08/19	9:00 p	65.4	78.9	65.4	96	64.2	12.0	WSW	12.00	47.0	WNW	61.9	66.7	63.2	29.883	0.66	7.38	0.000	0.017	89.8	40	62.3	91.0	1405	1	100.0	60
04/08/19	10:00 p	65.1	65.4	65.0	98	64.5	6.0	SSW	6.00	12.0	W	65.1	66.4	66.4	29.865	0.04	0.18	0.000	0.004	88.6	40	61.2	89.2	1405	1	100.0	60
04/08/19	11:00 p	65.2	65.2	65.0	99	64.9	7.0	S	7.00	15.0	SSE	65.2	66.5	66.5	29.848	0.06	0.12	0.000	0.008	87.5	41	60.9	88.0	1405	1	100.0	60
04/09/19	12:00 a	64.9	65.2	64.9	99	64.6	7.0	S	7.00	15.0	SSE	64.9	66.2	66.2	29.829	0.02	0.06	0.004	0.000	86.5	42	60.7	87.2	1405	1	100.0	60
TUESDAY			Temp	Hi	Low	Out	Dew	Wind	Wind	Wind	Hi	Hi	Wind	Heat	THW			Rain	Heat	Cool	In 	In	In 	In 	Wind	Wind	ISS 	Arc.
Date		Time	Out	Temp	Temp	Hum	Pt.	Speed	Dir	Run	Speed	Dir	Chill	Index	Index	Bar  	Rain	Rate	D-D 	D-D 	Temp	Hum	Dew	Heat	Samp	Tx 	Recept	Int.
04/09/19	1:00 a	64.8	64.9	64.7	99	64.5	7.0	SSW	7.00	19.0	SW	64.8	66.0	66.0	29.804	0.03	0.00	0.008	0.000	85.9	42	60.1	86.4	1403	1	100.0	60
04/09/19	2:00 a	64.5	64.8	64.5	100	64.5	6.0	SW	6.00	15.0	SW	64.5	65.7	65.7	29.792	0.01	0.00	0.021	0.000	85.7	41	59.3	86.0	1405	1	100.0	60
04/09/19	3:00 a	64.4	64.5	64.4	100	64.4	6.0	SW	6.00	15.0	SSW	64.4	65.6	65.6	29.770	0.02	0.00	0.025	0.000	85.2	41	58.8	85.5	1406	1	100.0	60
04/09/19	4:00 a	64.4	64.4	64.3	100	64.4	6.0	SW	6.00	14.0	SSW	64.4	65.6	65.6	29.754	0.02	0.06	0.025	0.000	84.7	41	58.4	85.0	1404	1	100.0	60
04/09/19	5:00 a	64.2	64.4	64.2	100	64.2	6.0	SW	6.00	17.0	SSW	64.2	65.3	65.3	29.730	0.05	0.13	0.033	0.000	84.2	41	57.9	84.6	1405	1	100.0	60
04/09/19	6:00 a	64.0	64.3	64.0	100	64.0	5.0	SW	5.00	14.0	S	64.0	65.1	65.1	29.715	0.03	0.36	0.042	0.000	83.7	41	57.5	84.0	1405	1	100.0	60
04/09/19	7:00 a	64.0	64.0	64.0	100	64.0	5.0	SW	5.00	12.0	WSW	64.0	65.1	65.1	29.711	0.04	0.42	0.042	0.000	83.4	41	57.2	83.5	1405	1	100.0	60
04/09/19	8:00 a	64.4	64.4	63.9	100	64.4	4.0	SW	4.00	11.0	W	64.4	65.6	65.6	29.713	0.00	0.00	0.025	0.000	83.4	42	57.9	83.7	1405	1	100.0	60
04/09/19	9:00 a	65.8	65.8	64.3	100	65.8	4.0	WSW	4.00	11.0	W	65.8	67.3	67.3	29.687	0.00	0.00	0.000	0.033	83.3	43	58.5	83.7	1405	1	100.0	60
04/09/19	10:00 a	65.6	66.0	65.6	100	65.6	5.0	WSW	5.00	14.0	W	65.6	67.0	67.0	29.699	0.00	0.00	0.000	0.025	83.2	45	59.6	83.8	1405	1	100.0	60
04/09/19	11:00 a	66.8	66.9	65.6	100	66.8	6.0	W	6.00	15.0	W	66.8	68.5	68.5	29.697	0.00	0.00	0.000	0.075	83.6	45	60.0	84.5	1405	1	100.0	60
04/09/19	12:00 p	67.8	67.8	66.7	97	66.9	6.0	W	6.00	17.0	WNW	67.8	69.7	69.7	29.686	0.00	0.00	0.000	0.117	84.3	45	60.6	85.4	1405	1	100.0	60
04/09/19	1:00 p	70.9	70.9	67.8	89	67.5	6.0	W	6.00	15.0	W	70.9	73.0	73.0	29.662	0.00	0.00	0.000	0.246	85.4	44	61.0	86.3	1405	1	100.0	60
04/09/19	2:00 p	72.7	72.7	70.9	80	66.2	6.0	WSW	6.00	15.0	WNW	72.7	74.4	74.4	29.648	0.00	0.00	0.000	0.321	86.1	44	61.6	87.1	1405	1	100.0	60
04/09/19	3:00 p	74.5	74.5	72.7	72	64.9	7.0	WNW	7.00	17.0	WSW	74.5	76.3	76.3	29.617	0.00	0.00	0.000	0.396	87.2	43	62.0	88.3	1404	1	100.0	60
04/09/19	4:00 p	75.4	75.6	74.5	70	64.9	7.0	W	7.00	18.0	WSW	75.4	77.1	77.1	29.604	0.00	0.00	0.000	0.433	89.4	41	62.6	90.9	1405	1	100.0	60
04/09/19	5:00 p	75.0	75.6	75.0	68	63.7	7.0	WSW	7.00	15.0	W	75.0	76.5	76.5	29.600	0.00	0.00	0.000	0.417	88.9	41	62.2	90.2	1405	1	100.0	60
04/09/19	6:00 p	74.0	75.0	74.0	71	64.0	5.0	SW	5.00	13.0	WNW	74.0	75.7	75.7	29.610	0.00	0.00	0.000	0.375	88.3	41	61.6	89.0	1406	1	100.0	60
04/09/19	7:00 p	72.6	74.0	72.6	75	64.2	4.0	SW	4.00	11.0	SSW	72.6	73.9	73.9	29.604	0.00	0.00	0.000	0.317	87.6	41	61.0	88.1	1404	1	100.0	60
04/09/19	8:00 p	70.4	72.6	70.4	80	63.9	4.0	SW	4.00	10.0	SW	70.4	71.6	71.6	29.625	0.00	0.00	0.000	0.225	87.0	41	60.5	87.6	1405	1	100.0	60
04/09/19	9:00 p	67.9	70.4	67.9	85	63.2	5.0	SW	5.00	11.0	SW	67.9	69.4	69.4	29.637	0.00	0.00	0.000	0.121	86.2	41	59.7	86.6	1405	1	100.0	60
04/09/19	10:00 p	65.7	67.9	65.7	88	62.0	5.0	SW	5.00	7.0	SW	65.7	66.8	66.8	29.656	0.00	0.00	0.000	0.029	85.5	41	59.1	85.8	1405	1	100.0	60
04/09/19	11:00 p	64.2	65.7	64.2	91	61.5	5.0	SW	5.00	11.0	WSW	64.2	65.1	65.1	29.663	0.00	0.00	0.033	0.000	85.0	41	58.7	85.3	1405	1	100.0	60
04/10/19	12:00 a	63.0	64.2	63.0	93	60.9	5.0	SW	5.00	11.0	SW	63.0	63.8	63.8	29.666	0.00	0.00	0.083	0.000	84.5	41	58.2	84.9	1405	1	100.0	60
WEDNESDAY		Temp	Hi	Low	Out	Dew	Wind	Wind	Wind	Hi	Hi	Wind	Heat	THW			Rain	Heat	Cool	In 	In	In 	In 	Wind	Wind	ISS 	Arc.
Date		Time	Out	Temp	Temp	Hum	Pt.	Speed	Dir	Run	Speed	Dir	Chill	Index	Index	Bar  	Rain	Rate	D-D 	D-D 	Temp	Hum	Dew	Heat	Samp	Tx 	Recept	Int.
04/10/19	1:00 a	62.0	63.0	62.0	94	60.3	5.0	SSW	5.00	6.0	SSW	62.0	62.7	62.7	29.672	0.00	0.00	0.125	0.000	83.9	42	58.3	84.5	1404	1	100.0	60
04/10/19	2:00 a	61.7	62.0	61.6	96	60.5	4.0	SW	4.00	7.0	SSW	61.7	62.4	62.4	29.705	0.00	0.00	0.137	0.000	83.3	42	57.8	83.5	1405	1	100.0	60
04/10/19	3:00 a	61.8	61.8	61.6	78	54.9	5.0	NW	5.00	17.0	NE	61.8	61.8	61.8	29.727	0.00	0.00	0.133	0.000	82.7	42	57.3	82.6	1404	1	100.0	60
04/10/19	4:00 a	62.7	63.5	61.9	54	45.8	11.0	NE	11.00	23.0	NE	59.4	61.2	57.9	29.747	0.00	0.00	0.096	0.000	82.1	41	56.1	81.6	1406	1	100.0	60
04/10/19	5:00 a	61.8	62.7	61.7	52	44.0	10.0	NE	10.00	19.0	NE	59.1	60.0	57.3	29.770	0.00	0.00	0.133	0.000	81.4	41	55.4	80.6	1404	1	100.0	60
04/10/19	6:00 a	60.2	61.7	60.1	59	45.8	11.0	NE	11.00	23.0	NE	56.5	58.9	55.2	29.787	0.00	0.00	0.200	0.000	80.8	41	54.9	79.9	1405	1	100.0	60
04/10/19	7:00 a	58.4	60.2	58.4	66	47.1	10.0	ENE	10.00	17.0	NE	55.1	57.4	54.1	29.823	0.00	0.00	0.275	0.000	80.4	40	53.9	79.4	1405	1	100.0	60
04/10/19	8:00 a	56.9	58.4	56.9	70	47.2	6.0	ENE	6.00	15.0	ENE	55.9	56.1	55.1	29.848	0.00	0.00	0.337	0.000	80.4	40	53.9	79.4	1405	1	100.0	60
04/10/19	9:00 a	58.5	58.5	56.9	65	46.8	7.0	ENE	7.00	16.0	ENE	57.4	57.5	56.4	29.851	0.00	0.00	0.271	0.000	80.7	39	53.4	79.6	1405	1	100.0	60
04/10/19	10:00 a	61.4	61.4	58.5	48	41.5	10.0	ENE	10.00	18.0	E	58.6	59.3	56.5	29.859	0.00	0.00	0.150	0.000	81.2	36	51.7	79.8	1405	1	100.0	60
04/10/19	11:00 a	63.8	63.9	61.4	40	39.0	10.0	ENE	10.00	16.0	ENE	61.4	61.1	58.7	29.869	0.00	0.00	0.050	0.000	82.0	34	50.9	80.6	1405	1	100.0	60
04/10/19	12:00 p	64.9	64.9	63.9	38	38.7	10.0	ENE	10.00	16.0	ENE	62.7	62.1	59.9	29.871	0.00	0.00	0.004	0.000	83.0	33	50.9	81.5	1405	1	100.0	60
04/10/19	1:00 p	65.9	65.9	64.9	37	38.9	7.0	NE	7.00	17.0	E	65.9	63.0	63.0	29.861	0.00	0.00	0.000	0.038	84.0	33	51.8	82.9	1405	1	100.0	60
04/10/19	2:00 p	67.0	67.0	65.9	40	41.9	6.0	ENE	6.00	17.0	NE	67.0	64.5	64.5	29.845	0.00	0.00	0.000	0.083	85.6	35	54.8	84.9	1405	1	100.0	60
04/10/19	3:00 p	68.6	68.6	67.0	39	42.6	6.0	SSE	6.00	14.0	ENE	68.6	66.1	66.1	29.833	0.00	0.00	0.000	0.150	87.3	36	57.1	86.6	1405	1	100.0	60
04/10/19	4:00 p	70.1	70.1	68.6	34	40.4	6.0	ENE	6.00	14.0	WNW	70.1	66.9	66.9	29.821	0.00	0.00	0.000	0.212	92.2	34	59.8	92.6	1405	1	100.0	60
04/10/19	5:00 p	71.2	71.2	70.0	42	46.9	10.0	SSE	10.00	21.0	SSE	69.1	69.1	67.0	29.826	0.00	0.00	0.000	0.258	92.5	34	60.0	93.0	1404	1	100.0	60
04/10/19	6:00 p	71.3	71.4	71.2	38	44.4	11.0	SSE	11.00	19.0	S	68.7	68.9	66.3	29.847	0.00	0.00	0.000	0.263	92.1	33	58.9	92.3	1406	1	100.0	60
04/10/19	7:00 p	70.3	71.8	70.3	37	42.8	11.0	SSE	11.00	18.0	S	67.7	67.5	64.9	29.863	0.00	0.00	0.000	0.221	90.6	32	56.7	90.1	1404	1	100.0	60
04/10/19	8:00 p	63.8	70.3	63.8	46	42.6	10.0	SSE	10.00	19.0	S	61.4	61.7	59.3	29.890	0.00	0.00	0.050	0.000	88.4	32	54.8	86.7	1405	1	100.0	60
04/10/19	9:00 p	59.6	63.8	59.6	55	43.4	7.0	SSE	7.00	14.0	SSE	58.7	58.0	57.1	29.912	0.00	0.00	0.225	0.000	86.2	32	52.9	84.9	1405	1	100.0	60
04/10/19	10:00 p	57.4	59.6	57.4	61	44.1	7.0	SSE	7.00	15.0	SSE	56.1	56.2	54.9	29.935	0.00	0.00	0.317	0.000	84.3	32	51.2	83.0	1405	1	100.0	60
04/10/19	11:00 p	56.0	57.4	56.0	65	44.4	6.0	SSE	6.00	13.0	SSE	54.8	55.0	53.8	29.944	0.00	0.00	0.375	0.000	82.8	32	49.9	81.1	1405	1	100.0	60
04/11/19	12:00 a	54.5	56.0	54.5	69	44.5	4.0	SSE	4.00	10.0	SSE	54.1	53.7	53.3	29.953	0.00	0.00	0.438	0.000	82.2	33	50.2	80.7	1406	1	100.0	60
THURSDAY		Temp	Hi	Low	Out	Dew	Wind	Wind	Wind	Hi	Hi	Wind	Heat	THW			Rain	Heat	Cool	In 	In	In 	In 	Wind	Wind	ISS 	Arc.
Date		Time	Out	Temp	Temp	Hum	Pt.	Speed	Dir	Run	Speed	Dir	Chill	Index	Index	Bar  	Rain	Rate	D-D 	D-D 	Temp	Hum	Dew	Heat	Samp	Tx 	Recept	Int.
04/11/19	1:00 a	52.9	54.5	52.9	77	45.9	0.0	SSE	0.00	6.0	SSE	52.9	52.5	52.5	29.972	0.00	0.00	0.504	0.000	81.5	33	49.6	79.9	1403	1	100.0	60
04/11/19	2:00 a	50.6	52.9	50.6	80	44.7	0.0	SSE	0.00	4.0	SSE	50.6	50.5	50.5	29.973	0.00	0.00	0.600	0.000	80.6	33	48.8	78.9	1405	1	100.0	60
04/11/19	3:00 a	49.0	50.6	49.0	84	44.4	0.0	SSE	0.00	4.0	SSE	49.0	49.1	49.1	29.968	0.00	0.00	0.667	0.000	80.4	33	48.7	78.7	1405	1	100.0	60
04/11/19	4:00 a	47.8	49.0	47.8	87	44.1	0.0	SSE	0.00	4.0	SSE	47.8	47.9	47.9	29.984	0.00	0.00	0.717	0.000	80.1	34	49.2	78.5	1404	1	100.0	60
04/11/19	5:00 a	47.2	47.8	47.2	90	44.4	0.0	SSE	0.00	4.0	SSE	47.2	47.4	47.4	29.996	0.00	0.00	0.742	0.000	79.2	34	48.4	77.8	1405	1	100.0	60
04/11/19	6:00 a	46.9	47.2	46.9	92	44.7	0.0	SSE	0.00	4.0	SSE	46.9	47.1	47.1	30.019	0.00	0.00	0.754	0.000	79.1	34	48.3	77.8	1405	1	100.0	60
04/11/19	7:00 a	47.0	47.0	46.9	93	45.1	0.0	SSE	0.00	6.0	SSE	47.0	47.3	47.3	30.042	0.00	0.00	0.750	0.000	79.3	34	48.5	77.9	1405	1	100.0	60
04/11/19	8:00 a	53.7	53.7	47.0	86	49.6	5.0	ENE	5.00	11.0	ENE	52.5	53.6	52.4	30.075	0.00	0.00	0.471	0.000	79.7	34	48.8	78.2	1405	1	100.0	60
04/11/19	9:00 a	60.5	60.5	53.8	71	51.0	6.0	ENE	6.00	14.0	ENE	60.2	60.0	59.7	30.099	0.00	0.00	0.188	0.000	79.6	34	48.8	78.1	1405	1	100.0	60
04/11/19	10:00 a	64.0	64.0	60.5	63	51.1	6.0	ENE	6.00	15.0	ENE	64.0	63.3	63.3	30.108	0.00	0.00	0.042	0.000	80.6	33	48.8	78.9	1405	1	100.0	60
04/11/19	11:00 a	65.9	66.1	64.0	61	52.1	6.0	ENE	6.00	16.0	ENE	65.9	65.3	65.3	30.130	0.00	0.00	0.000	0.038	81.9	33	50.0	80.3	1405	1	100.0	60
04/11/19	12:00 p	67.5	67.5	65.8	63	54.5	7.0	ENE	7.00	16.0	ENE	67.5	67.4	67.4	30.125	0.00	0.00	0.000	0.104	83.0	34	51.7	81.6	1405	1	100.0	60
04/11/19	1:00 p	69.5	69.5	67.5	61	55.5	7.0	E	7.00	17.0	ENE	69.5	68.9	68.9	30.105	0.00	0.00	0.000	0.188	84.4	35	53.8	83.7	1405	1	100.0	60
04/11/19	2:00 p	72.4	72.4	69.5	61	58.2	10.0	SSE	10.00	18.0	SE	70.3	72.6	70.5	30.090	0.00	0.00	0.000	0.308	86.0	35	55.2	85.3	1405	1	100.0	60
04/11/19	3:00 p	74.0	74.0	72.4	60	59.2	11.0	SE	11.00	20.0	SSE	71.5	74.7	72.2	30.081	0.00	0.00	0.000	0.375	87.7	35	56.7	86.6	1405	1	100.0	60
04/11/19	4:00 p	75.0	75.0	74.0	57	58.7	11.0	SSE	11.00	22.0	SSE	72.6	75.7	73.3	30.070	0.00	0.00	0.000	0.417	89.7	35	58.4	89.4	1405	1	100.0	60
04/11/19	5:00 p	73.7	75.0	73.7	62	59.9	10.0	SE	10.00	21.0	SSE	71.7	74.5	72.5	30.075	0.00	0.00	0.000	0.362	91.1	34	58.8	91.1	1404	1	100.0	60
04/11/19	6:00 p	72.8	73.8	72.3	63	59.5	7.0	SE	7.00	21.0	SSE	72.8	73.3	73.3	30.079	0.00	0.00	0.000	0.325	91.8	34	59.4	92.1	1405	1	100.0	60
04/11/19	7:00 p	70.9	73.2	70.9	66	59.0	12.0	SE	12.00	22.0	SSE	67.8	70.9	67.8	30.087	0.00	0.00	0.000	0.246	90.9	34	58.7	90.9	1405	1	100.0	60
04/11/19	8:00 p	67.5	70.9	67.5	73	58.5	11.0	SSE	11.00	21.0	SE	64.9	68.2	65.6	30.100	0.00	0.00	0.000	0.104	89.5	34	57.4	88.9	1405	1	100.0	60
04/11/19	9:00 p	65.6	67.5	65.6	77	58.2	10.0	SSE	10.00	18.0	SSE	63.5	66.2	64.1	30.126	0.00	0.00	0.000	0.025	88.2	35	57.1	87.1	1405	1	100.0	60
04/11/19	10:00 p	65.0	65.6	65.0	78	58.0	11.0	SSE	11.00	23.0	S	62.1	65.5	62.6	30.156	0.00	0.00	0.000	0.000	87.1	35	56.1	86.3	1405	1	100.0	60
04/11/19	11:00 p	64.3	65.0	64.3	79	57.6	11.0	SSE	11.00	23.0	S	61.3	64.8	61.8	30.157	0.00	0.00	0.029	0.000	86.1	35	55.2	85.4	1405	1	100.0	60
04/12/19	12:00 a	63.2	64.3	63.2	81	57.3	10.0	SSE	10.00	17.0	S	60.7	63.6	61.1	30.166	0.00	0.00	0.075	0.000	85.2	36	55.2	84.6	1405	1	100.0	60
FRIDAY			Temp	Hi	Low	Out	Dew	Wind	Wind	Wind	Hi	Hi	Wind	Heat	THW			Rain	Heat	Cool	In 	In	In 	In 	Wind	Wind	ISS 	Arc.
Date		Time	Out	Temp	Temp	Hum	Pt.	Speed	Dir	Run	Speed	Dir	Chill	Index	Index	Bar  	Rain	Rate	D-D 	D-D 	Temp	Hum	Dew	Heat	Samp	Tx 	Recept	Int.
04/12/19	1:00 a	62.2	63.2	62.2	83	57.0	7.0	SSE	7.00	15.0	SSE	61.9	62.5	62.2	30.173	0.00	0.00	0.117	0.000	84.5	36	54.6	83.9	1404	1	100.0	60
04/12/19	2:00 a	61.2	62.2	61.2	85	56.7	6.0	S	6.00	12.0	S	61.0	61.4	61.2	30.158	0.00	0.00	0.158	0.000	83.7	36	53.9	83.0	1405	1	100.0	60
04/12/19	3:00 a	59.7	61.2	59.7	87	55.8	4.0	SSE	4.00	7.0	SSE	59.7	59.9	59.9	30.146	0.00	0.00	0.221	0.000	83.0	36	53.3	82.0	1405	1	100.0	60
04/12/19	4:00 a	58.2	59.7	58.1	90	55.3	5.0	SSE	5.00	10.0	S	57.8	58.3	57.9	30.140	0.00	0.00	0.283	0.000	82.2	37	53.3	81.2	1405	1	100.0	60
04/12/19	5:00 a	58.5	58.5	58.1	94	56.8	6.0	SSE	6.00	13.0	SSE	57.8	58.8	58.1	30.142	0.00	0.00	0.271	0.000	81.7	37	52.9	80.6	1404	1	100.0	60
04/12/19	6:00 a	58.8	58.9	58.5	95	57.4	6.0	SSE	6.00	13.0	SE	58.2	59.2	58.6	30.140	0.00	0.00	0.258	0.000	81.6	36	52.1	80.3	1405	1	100.0	60
04/12/19	7:00 a	59.5	59.5	58.8	96	58.4	7.0	SSE	7.00	15.0	SSE	58.6	59.9	59.0	30.151	0.00	0.00	0.229	0.000	81.2	36	51.7	79.8	1405	1	100.0	60
04/12/19	8:00 a	62.1	62.1	59.5	96	60.9	10.0	SSE	10.00	17.0	SSE	59.4	62.8	60.1	30.169	0.00	0.00	0.121	0.000	81.1	37	52.4	79.8	1405	1	100.0	60
04/12/19	9:00 a	67.7	67.7	62.1	85	63.0	13.0	SSE	13.00	25.0	S	64.1	69.1	65.5	30.172	0.00	0.00	0.000	0.112	81.6	37	52.8	80.4	1405	1	100.0	60
04/12/19	10:00 a	72.3	72.3	67.7	73	63.2	16.0	SSE	16.00	32.0	SSE	67.9	73.3	68.9	30.175	0.00	0.00	0.000	0.304	82.8	37	53.9	81.9	1405	1	100.0	60
04/12/19	11:00 a	74.5	74.5	72.4	68	63.2	16.0	S	16.00	32.0	SSE	70.4	76.0	71.9	30.175	0.00	0.00	0.000	0.396	83.9	38	55.6	83.7	1405	1	100.0	60
04/12/19	12:00 p	77.1	77.1	74.5	61	62.6	16.0	S	16.00	32.0	SSE	73.3	78.0	74.2	30.161	0.00	0.00	0.000	0.504	85.0	38	56.5	84.7	1405	1	100.0	60
04/12/19	1:00 p	78.8	78.9	77.1	59	63.3	17.0	S	17.00	35.0	SSE	75.2	79.8	76.2	30.140	0.00	0.00	0.000	0.575	86.4	38	57.8	86.3	1405	1	100.0	60
04/12/19	2:00 p	80.0	80.0	78.8	55	62.4	17.0	S	17.00	33.0	S	76.6	80.7	77.3	30.127	0.00	0.00	0.000	0.625	87.9	38	59.1	87.5	1405	1	100.0	60
04/12/19	3:00 p	80.7	80.8	80.0	55	63.0	17.0	S	17.00	32.0	S	77.4	81.5	78.2	30.110	0.00	0.00	0.000	0.654	89.3	38	60.4	89.7	1405	1	100.0	60
04/12/19	4:00 p	80.8	80.8	80.3	58	64.6	16.0	S	16.00	36.0	SSE	77.8	82.1	79.1	30.088	0.00	0.00	0.000	0.658	90.6	37	60.8	91.3	1405	1	100.0	60
04/12/19	5:00 p	79.9	80.9	79.8	59	64.3	15.0	S	15.00	28.0	SE	76.9	81.1	78.1	30.087	0.00	0.00	0.000	0.621	90.7	36	60.1	91.1	1405	1	100.0	60
04/12/19	6:00 p	77.5	79.9	77.5	59	62.0	15.0	S	15.00	29.0	SSE	74.1	78.3	74.9	30.099	0.00	0.00	0.000	0.521	90.0	36	59.5	90.2	1405	1	100.0	60
04/12/19	7:00 p	73.9	77.5	73.9	66	61.8	16.0	S	16.00	29.0	SSE	69.7	75.1	70.9	30.102	0.00	0.00	0.000	0.371	88.7	36	58.3	88.2	1405	1	100.0	60
04/12/19	8:00 p	73.0	73.9	73.0	71	63.0	15.0	S	15.00	30.0	SSE	69.0	74.2	70.2	30.121	0.00	0.00	0.000	0.333	87.0	39	59.0	87.2	1404	1	100.0	60
04/12/19	9:00 p	71.8	73.1	71.8	74	63.1	11.0	S	11.00	22.0	SSE	69.2	72.7	70.1	30.130	0.00	0.00	0.000	0.283	86.0	41	59.6	86.4	1405	1	100.0	60
04/12/19	10:00 p	70.5	71.8	70.5	78	63.3	11.0	S	11.00	20.0	S	67.9	71.5	68.9	30.147	0.00	0.00	0.000	0.229	85.1	42	59.4	85.6	1405	1	100.0	60
04/12/19	11:00 p	69.9	70.5	69.9	79	63.1	12.0	S	12.00	26.0	SSE	66.8	70.9	67.8	30.117	0.00	0.00	0.000	0.204	84.4	43	59.5	85.1	1405	1	100.0	60
04/13/19	12:00 a	69.7	70.0	69.6	80	63.3	11.0	S	11.00	21.0	SSE	67.1	70.9	68.3	30.114	0.00	0.00	0.000	0.196	83.8	43	58.9	84.5	1405	1	100.0	60
SATURDAY		Temp	Hi	Low	Out	Dew	Wind	Wind	Wind	Hi	Hi	Wind	Heat	THW			Rain	Heat	Cool	In 	In	In 	In 	Wind	Wind	ISS 	Arc.
Date		Time	Out	Temp	Temp	Hum	Pt.	Speed	Dir	Run	Speed	Dir	Chill	Index	Index	Bar  	Rain	Rate	D-D 	D-D 	Temp	Hum	Dew	Heat	Samp	Tx 	Recept	Int.
4/13/19		1:00 a	69.2	69.7	69.2	81	63.1	12.0	S	12.00	22.0	SSE	66.1	70.7	67.6	30.098	0.00	0.00	0.000	0.175	83.2	44	59.0	83.7	1404	1	100.0	60
04/13/19	2:00 a	69.2	69.3	69.1	83	63.8	13.0	S	13.00	24.0	S	65.6	70.8	67.2	30.062	0.00	0.00	0.000	0.175	82.6	45	59.1	82.9	1405	1	100.0	60
04/13/19	3:00 a	69.0	69.2	68.9	84	64.0	12.0	S	12.00	22.0	SSE	65.9	70.7	67.6	30.059	0.00	0.00	0.000	0.167	82.1	46	59.3	82.2	1405	1	100.0	60
04/13/19	4:00 a	69.4	69.4	69.0	84	64.4	11.0	S	11.00	20.0	SSE	66.8	71.0	68.4	30.064	0.00	0.00	0.000	0.183	81.7	47	59.5	81.8	1405	1	100.0	60
04/13/19	5:00 a	68.6	69.4	68.6	88	64.9	10.0	S	10.00	18.0	SSE	66.5	70.4	68.3	30.073	0.00	0.00	0.000	0.150	81.6	49	60.6	81.9	1405	1	100.0	60
04/13/19	6:00 a	68.4	68.6	68.3	88	64.7	7.0	S	7.00	17.0	S	68.4	70.1	70.1	30.077	0.00	0.00	0.000	0.142	81.4	49	60.4	81.6	1405	1	100.0	60
04/13/19	7:00 a	68.0	68.5	67.9	91	65.3	10.0	S	10.00	16.0	SSE	65.9	69.7	67.6	30.092	0.00	0.00	0.000	0.125	81.2	49	60.2	81.4	1405	1	100.0	60
04/13/19	8:00 a	67.3	68.0	67.3	94	65.5	6.0	S	6.00	16.0	S	67.3	69.0	69.0	30.108	0.10	0.35	0.000	0.096	81.5	50	61.1	81.9	1404	1	100.0	60
04/13/19	9:00 a	66.8	67.3	66.8	98	66.2	10.0	S	10.00	22.0	SSE	64.8	68.5	66.5	30.101	0.13	0.55	0.000	0.075	81.1	51	61.3	81.5	1406	1	100.0	60
04/13/19	10:00 a	68.4	68.4	66.8	99	68.1	6.0	S	6.00	14.0	S	68.4	70.7	70.7	30.101	0.01	0.00	0.000	0.142	81.7	51	61.8	82.3	1404	1	100.0	60
04/13/19	11:00 a	69.3	69.3	68.5	99	69.0	7.0	S	7.00	14.0	S	69.3	72.2	72.2	30.097	0.00	0.00	0.000	0.179	82.2	50	61.7	82.9	1405	1	100.0	60
04/13/19	12:00 p	69.9	70.1	69.3	99	69.6	7.0	S	7.00	18.0	SSE	69.9	73.1	73.1	30.091	0.00	0.00	0.000	0.204	82.5	51	62.5	83.5	1405	1	100.0	60
04/13/19	1:00 p	66.3	69.9	66.3	98	65.7	5.0	NW	5.00	13.0	S	66.3	67.8	67.8	30.094	0.06	0.16	0.000	0.054	82.6	49	61.5	83.4	1405	1	100.0	60
04/13/19	2:00 p	65.9	66.3	65.7	99	65.6	6.0	NNW	6.00	13.0	WNW	65.9	67.4	67.4	30.088	0.01	0.16	0.000	0.038	82.7	48	61.0	83.4	1405	1	100.0	60
04/13/19	3:00 p	65.7	65.9	65.6	100	65.7	6.0	NNW	6.00	14.0	NNW	65.7	67.1	67.1	30.093	0.04	0.44	0.000	0.029	82.6	47	60.3	83.1	1405	1	100.0	60
04/13/19	4:00 p	66.3	66.3	65.7	100	66.3	5.0	ENE	5.00	10.0	WNW	66.3	67.9	67.9	30.068	0.14	0.61	0.000	0.054	82.8	46	59.9	83.3	1405	1	100.0	60
04/13/19	5:00 p	66.7	66.8	66.2	100	66.7	5.0	SSE	5.00	10.0	SSE	66.7	68.4	68.4	30.066	0.01	0.00	0.000	0.071	82.6	46	59.7	83.0	1405	1	100.0	60
04/13/19	6:00 p	66.3	66.8	66.3	100	66.3	4.0	SSW	4.00	10.0	S	66.3	67.9	67.9	30.074	0.00	0.00	0.000	0.054	82.4	46	59.5	82.7	1405	1	100.0	60
04/13/19	7:00 p	65.9	66.3	65.9	100	65.9	4.0	SSW	4.00	6.0	SSW	65.9	67.4	67.4	30.057	0.00	0.00	0.000	0.038	82.1	46	59.3	82.2	1405	1	100.0	60
04/13/19	8:00 p	65.8	66.0	65.8	100	65.8	6.0	SSE	6.00	11.0	SSE	65.8	67.3	67.3	30.041	0.03	0.36	0.000	0.033	81.8	47	59.6	81.9	1405	1	100.0	60
04/13/19	9:00 p	64.7	65.8	64.7	99	64.4	5.0	SSE	5.00	12.0	SSE	64.7	65.9	65.9	30.033	0.00	0.00	0.013	0.000	81.5	47	59.3	81.5	1405	1	100.0	60
04/13/19	10:00 p	64.4	64.7	64.4	100	64.4	7.0	SSE	7.00	15.0	SSE	64.4	65.6	65.6	30.018	0.00	0.00	0.025	0.000	81.2	47	59.1	81.1	1404	1	100.0	60
04/13/19	11:00 p	64.6	64.6	64.3	100	64.6	5.0	SSE	5.00	11.0	SSE	64.6	65.8	65.8	30.016	0.00	0.00	0.017	0.000	81.0	47	58.9	80.8	1405	1	100.0	60
04/14/19	12:00 a	65.2	65.3	64.6	100	65.2	0.0	SSE	0.00	7.0	SSE	65.2	66.5	66.5	30.006	0.00	0.00	0.000	0.008	80.9	47	58.8	80.7	1405	1	100.0	60
SUNDAY			Temp	Hi	Low	Out	Dew	Wind	Wind	Wind	Hi	Hi	Wind	Heat	THW			Rain	Heat	Cool	In 	In	In 	In 	Wind	Wind	ISS 	Arc.
Date		Time	Out	Temp	Temp	Hum	Pt.	Speed	Dir	Run	Speed	Dir	Chill	Index	Index	Bar  	Rain	Rate	D-D 	D-D 	Temp	Hum	Dew	Heat	Samp	Tx 	Recept	Int.
04/14/19	1:00 a	66.3	66.4	65.2	100	66.3	5.0	S	5.00	12.0	S	66.3	67.9	67.9	29.990	0.01	0.00	0.000	0.054	81.1	46	58.4	80.9	1403	1	100.0	60
04/14/19	2:00 a	67.6	67.6	66.3	100	67.6	6.0	S	6.00	14.0	SSE	67.6	69.5	69.5	29.965	0.00	0.00	0.000	0.108	81.1	46	58.4	80.9	1405	1	100.0	60
04/14/19	3:00 a	68.2	68.2	67.6	100	68.2	6.0	S	6.00	12.0	SSE	68.2	70.4	70.4	29.945	0.00	0.00	0.000	0.133	81.0	46	58.3	80.7	1405	1	100.0	60
04/14/19	4:00 a	68.5	68.5	68.2	100	68.5	5.0	S	5.00	11.0	S	68.5	71.0	71.0	29.953	0.00	0.00	0.000	0.146	81.0	46	58.3	80.7	1405	1	100.0	60
04/14/19	5:00 a	68.4	68.5	68.4	100	68.4	5.0	SSW	5.00	10.0	S	68.4	70.8	70.8	29.954	0.00	0.00	0.000	0.142	80.9	46	58.2	80.6	1405	1	100.0	60
04/14/19	6:00 a	68.3	68.4	68.3	100	68.3	4.0	S	4.00	7.0	S	68.3	70.6	70.6	29.952	0.01	0.00	0.000	0.138	80.9	46	58.2	80.6	1405	1	100.0	60
04/14/19	7:00 a	68.3	68.4	68.3	100	68.3	5.0	S	5.00	11.0	S	68.3	70.6	70.6	29.949	0.00	0.00	0.000	0.138	81.0	46	58.3	80.7	1405	1	100.0	60
04/14/19	8:00 a	69.2	69.2	68.3	100	69.2	5.0	S	5.00	13.0	SSE	69.2	72.2	72.2	29.948	0.00	0.00	0.000	0.175	81.0	46	58.3	80.7	1405	1	100.0	60
04/14/19	9:00 a	71.0	71.0	69.2	100	71.0	7.0	S	7.00	16.0	S	71.0	74.7	74.7	29.929	0.00	0.00	0.000	0.250	81.4	45	58.0	81.1	1405	1	100.0	60
04/14/19	10:00 a	71.6	71.7	70.9	100	71.6	7.0	S	7.00	17.0	SSE	71.6	75.2	75.2	29.902	0.00	0.00	0.000	0.275	81.8	46	59.0	81.8	1404	1	100.0	60
04/14/19	11:00 a	72.7	72.7	71.6	100	72.7	7.0	S	7.00	16.0	S	72.7	76.3	76.3	29.881	0.00	0.00	0.000	0.321	82.5	46	59.6	82.8	1406	1	100.0	60
04/14/19	12:00 p	74.4	74.4	72.7	100	74.4	10.0	S	10.00	21.0	SSW	72.4	78.1	76.1	29.864	0.00	0.00	0.000	0.392	83.6	46	60.6	84.6	1405	1	100.0	60
04/14/19	1:00 p	74.7	74.7	74.4	100	74.7	7.0	SSW	7.00	19.0	SW	74.7	78.4	78.4	29.841	0.02	0.35	0.000	0.404	84.5	46	61.4	85.7	1404	1	100.0	60
04/14/19	2:00 p	76.7	76.7	74.7	93	74.5	10.0	S	10.00	29.0	SSE	74.8	80.8	78.9	29.805	0.00	0.00	0.000	0.487	86.1	47	63.5	87.7	1405	1	100.0	60
04/14/19	3:00 p	79.2	79.2	76.7	80	72.5	11.0	SSW	11.00	24.0	SW	77.2	83.1	81.1	29.778	0.00	0.00	0.000	0.592	88.2	48	66.0	91.2	1405	1	100.0	60
04/14/19	4:00 p	82.3	82.3	79.2	67	70.2	13.0	SSW	13.00	26.0	SSE	80.2	86.2	84.1	29.746	0.00	0.00	0.000	0.721	90.2	46	66.6	94.0	1405	1	100.0	60
04/14/19	5:00 p	82.4	82.7	82.3	70	71.6	12.0	S	12.00	26.0	SSE	80.5	87.1	85.2	29.719	0.00	0.00	0.000	0.725	90.0	46	66.4	93.7	1405	1	100.0	60
04/14/19	6:00 p	80.5	82.4	80.5	73	71.0	12.0	S	12.00	25.0	S	78.4	84.1	82.0	29.712	0.00	0.00	0.000	0.646	89.8	46	66.3	93.4	1405	1	100.0	60
04/14/19	7:00 p	78.0	80.5	78.0	77	70.2	12.0	S	12.00	28.0	SSE	75.5	80.9	78.4	29.687	0.00	0.00	0.000	0.542	89.4	46	65.9	92.8	1405	1	100.0	60
04/14/19	8:00 p	76.3	78.0	76.3	81	70.0	12.0	S	12.00	22.0	SSE	73.6	79.3	76.6	29.670	0.00	0.00	0.000	0.471	88.9	46	65.4	92.0	1405	1	100.0	60
04/14/19	9:00 p	75.0	76.3	75.0	86	70.5	13.0	S	13.00	27.0	SSE	71.8	78.1	74.9	29.660	0.00	0.00	0.000	0.417	88.4	47	65.6	91.3	1405	1	100.0	60
04/14/19	10:00 p	74.6	75.0	74.6	88	70.8	14.0	S	14.00	29.0	S	71.1	77.5	74.0	29.621	0.00	0.00	0.000	0.400	87.9	47	65.2	90.3	1405	1	100.0	60
04/14/19	11:00 p	74.4	74.7	74.4	89	70.9	15.0	S	15.00	31.0	SSE	70.5	77.1	73.2	29.602	0.00	0.00	0.000	0.392	87.5	48	65.4	90.1	1405	1	100.0	60
04/15/19	12:00 a	74.9	74.9	74.4	89	71.4	16.0	S	16.00	40.0	SSE	70.9	78.1	74.1	29.567	0.00	0.00	0.000	0.413	87.6	48	65.5	90.2	1405	1	100.0	60
MONDAY			Temp	Hi	Low	Out	Dew	Wind	Wind	Wind	Hi	Hi	Wind	Heat	THW			Rain	Heat	Cool	In 	In	In 	In 	Wind	Wind	ISS 	Arc.
Date		Time	Out	Temp	Temp	Hum	Pt.	Speed	Dir	Run	Speed	Dir	Chill	Index	Index	Bar  	Rain	Rate	D-D 	D-D 	Temp	Hum	Dew	Heat	Samp	Tx 	Recept	Int.
04/15/19	1:00 a	75.2	75.2	74.9	88	71.4	14.0	S	14.00	35.0	S	71.7	78.5	75.0	29.546	0.00	0.00	0.000	0.425	87.3	48	65.2	89.9	1403	1	100.0	60
04/15/19	2:00 a	74.8	75.2	74.8	89	71.3	15.0	S	15.00	32.0	SSE	71.0	77.9	74.1	29.493	0.00	0.00	0.000	0.408	87.0	49	65.5	89.8	1405	1	100.0	60
04/15/19	3:00 a	75.1	75.1	74.8	89	71.6	15.0	S	15.00	36.0	S	71.3	78.4	74.6	29.459	0.00	0.00	0.000	0.421	86.8	49	65.3	89.4	1405	1	100.0	60
04/15/19	4:00 a	75.4	75.4	75.1	87	71.3	14.0	S	14.00	30.0	SSE	71.9	78.6	75.1	29.445	0.00	0.00	0.000	0.433	86.6	49	65.2	89.1	1405	1	100.0	60
04/15/19	5:00 a	70.8	75.6	70.8	94	69.0	12.0	SSW	12.00	34.0	W	67.7	73.4	70.3	29.455	0.23	5.65	0.000	0.242	86.8	49	65.3	89.4	1405	1	100.0	60
04/15/19	6:00 a	69.1	70.8	69.0	98	68.5	6.0	SW	6.00	20.0	SW	69.1	71.8	71.8	29.457	0.02	0.79	0.000	0.171	86.3	48	64.3	88.3	1405	1	100.0	60
04/15/19	7:00 a	65.0	69.1	65.0	96	63.8	12.0	SW	12.00	25.0	W	61.5	66.2	62.7	29.502	0.00	0.00	0.000	0.000	85.9	49	64.5	87.8	1405	1	100.0	60
04/15/19	8:00 a	63.0	65.0	63.0	95	61.5	6.0	SW	6.00	22.0	SW	63.0	63.8	63.8	29.516	0.00	0.00	0.083	0.000	85.8	48	63.8	87.5	1405	1	100.0	60
04/15/19	9:00 a	66.4	66.4	62.6	75	58.2	11.0	W	11.00	31.0	WSW	63.7	67.0	64.3	29.538	0.00	0.00	0.000	0.058	86.3	46	63.1	87.8	1405	1	100.0	60
04/15/19	10:00 a	67.8	67.8	66.4	67	56.4	13.0	W	13.00	32.0	W	64.2	68.1	64.5	29.565	0.00	0.00	0.000	0.117	87.0	44	62.5	88.4	1405	1	100.0	60
04/15/19	11:00 a	68.2	68.3	67.7	54	50.9	15.0	W	15.00	34.0	SW	63.8	67.3	62.9	29.613	0.00	0.00	0.000	0.133	87.8	42	61.9	88.6	1405	1	100.0	60
04/15/19	12:00 p	68.5	68.5	68.2	51	49.7	16.0	WNW	16.00	32.0	WSW	63.9	67.2	62.6	29.633	0.00	0.00	0.000	0.146	87.1	38	58.4	87.0	1405	1	100.0	60
04/15/19	1:00 p	68.2	68.8	67.9	45	46.0	16.0	WNW	16.00	33.0	W	63.5	66.4	61.7	29.656	0.00	0.00	0.000	0.133	86.5	34	54.8	85.6	1404	1	100.0	60
04/15/19	2:00 p	68.4	68.6	68.1	40	43.1	15.0	WNW	15.00	31.0	W	64.0	66.0	61.6	29.671	0.00	0.00	0.000	0.142	86.8	34	55.1	85.8	1405	1	100.0	60
04/15/19	3:00 p	68.4	68.4	68.0	43	45.0	15.0	WNW	15.00	32.0	WNW	64.0	66.3	61.9	29.692	0.00	0.00	0.000	0.142	87.0	32	53.6	85.6	1406	1	100.0	60
04/15/19	4:00 p	68.7	68.9	68.4	42	44.7	13.0	WNW	13.00	31.0	WNW	65.1	66.5	62.9	29.704	0.00	0.00	0.000	0.154	90.8	30	55.1	90.0	1404	1	100.0	60
04/15/19	5:00 p	69.1	69.2	68.8	44	46.3	12.0	W	12.00	27.0	NW	66.0	67.1	64.0	29.731	0.00	0.00	0.000	0.171	90.3	31	55.6	89.5	1405	1	100.0	60
04/15/19	6:00 p	68.7	69.2	68.6	38	42.1	14.0	WNW	14.00	27.0	WNW	64.7	66.1	62.1	29.791	0.00	0.00	0.000	0.154	89.7	29	53.2	88.1	1405	1	100.0	60
04/15/19	7:00 p	66.2	68.8	66.2	41	41.8	13.0	W	13.00	28.0	WNW	62.3	63.7	59.8	29.840	0.00	0.00	0.000	0.050	88.4	29	52.1	86.0	1405	1	100.0	60
04/15/19	8:00 p	61.4	66.2	61.4	47	41.0	12.0	W	12.00	24.0	W	57.3	59.2	55.1	29.891	0.00	0.00	0.150	0.000	87.3	32	53.8	85.8	1405	1	100.0	60
04/15/19	9:00 p	59.8	61.4	59.8	46	39.0	11.0	NW	11.00	24.0	NNW	56.1	57.6	53.9	29.953	0.00	0.00	0.217	0.000	85.8	34	54.2	84.9	1405	1	100.0	60
04/15/19	10:00 p	57.3	59.8	57.3	48	37.8	13.0	NNW	13.00	25.0	N	52.2	55.2	50.1	29.995	0.00	0.00	0.321	0.000	84.4	35	53.8	83.7	1405	1	100.0	60
04/15/19	11:00 p	55.4	57.3	55.4	52	38.1	12.0	NW	12.00	21.0	WNW	50.5	53.7	48.8	30.020	0.00	0.00	0.400	0.000	83.1	35	52.6	82.0	1405	1	100.0	60
04/16/19	12:00 a	54.0	55.4	54.0	54	37.7	12.0	NW	12.00	26.0	NW	48.9	52.5	47.4	30.068	0.00	0.00	0.458	0.000	82.3	35	51.9	81.0	1406	1	100.0	60
TUESDAY			Temp	Hi	Low	Out	Dew	Wind	Wind	Wind	Hi	Hi	Wind	Heat	THW			Rain	Heat	Cool	In 	In	In 	In 	Wind	Wind	ISS 	Arc.
Date		Time	Out	Temp	Temp	Hum	Pt.	Speed	Dir	Run	Speed	Dir	Chill	Index	Index	Bar  	Rain	Rate	D-D 	D-D 	Temp	Hum	Dew	Heat	Samp	Tx 	Recept	Int.
04/16/19	1:00 a	52.3	54.0	52.3	58	38.0	10.0	NW	10.00	20.0	NNW	48.0	51.2	46.9	30.097	0.00	0.00	0.529	0.000	81.4	35	51.1	80.0	1402	1	100.0	60
04/16/19	2:00 a	51.1	52.3	51.1	59	37.3	6.0	NNW	6.00	15.0	NNW	49.0	50.1	48.0	30.103	0.00	0.00	0.579	0.000	80.4	35	50.2	78.9	1405	1	100.0	60
04/16/19	3:00 a	48.8	51.1	48.8	66	37.9	4.0	NW	4.00	12.0	WNW	47.5	48.2	46.9	30.114	0.00	0.00	0.675	0.000	80.4	35	50.2	78.9	1405	1	100.0	60
04/16/19	4:00 a	47.8	48.8	47.8	67	37.4	5.0	NW	5.00	11.0	W	45.7	47.2	45.1	30.131	0.00	0.00	0.717	0.000	79.2	35	49.2	77.9	1405	1	100.0	60
04/16/19	5:00 a	46.3	47.8	46.3	69	36.7	5.0	WNW	5.00	11.0	W	43.9	45.8	43.4	30.143	0.00	0.00	0.779	0.000	79.1	35	49.1	77.9	1405	1	100.0	60
04/16/19	6:00 a	44.7	46.3	44.7	73	36.6	4.0	WSW	4.00	12.0	WNW	42.7	44.3	42.3	30.170	0.00	0.00	0.846	0.000	79.1	35	49.1	77.9	1405	1	100.0	60
04/16/19	7:00 a	43.6	44.7	43.5	77	36.9	5.0	WSW	5.00	13.0	W	40.7	43.3	40.4	30.206	0.00	0.00	0.892	0.000	79.2	35	49.2	77.9	1405	1	100.0	60
04/16/19	8:00 a	46.5	46.5	43.6	72	38.0	6.0	W	6.00	14.0	W	43.5	46.1	43.1	30.225	0.00	0.00	0.771	0.000	79.7	34	48.8	78.2	1405	1	100.0	60
04/16/19	9:00 a	52.3	52.3	46.5	60	38.8	7.0	WNW	7.00	17.0	W	50.0	51.3	49.0	30.236	0.00	0.00	0.529	0.000	80.0	34	49.1	78.4	1405	1	100.0	60
04/16/19	10:00 a	55.3	55.3	52.4	53	38.4	10.0	NW	10.00	18.0	NNW	51.5	53.6	49.8	30.244	0.00	0.00	0.404	0.000	80.9	34	49.9	79.3	1405	1	100.0	60
04/16/19	11:00 a	57.1	57.1	55.3	48	37.6	11.0	NW	11.00	20.0	NNW	53.0	55.1	51.0	30.243	0.00	0.00	0.329	0.000	81.4	34	50.3	79.9	1405	1	100.0	60
04/16/19	12:00 p	58.1	58.1	57.1	48	38.5	10.0	NW	10.00	19.0	NW	54.7	56.0	52.6	30.229	0.00	0.00	0.288	0.000	83.1	33	51.0	81.6	1405	1	100.0	60
04/16/19	1:00 p	60.0	60.0	58.1	43	37.4	7.0	NW	7.00	17.0	NNW	59.2	57.5	56.7	30.202	0.00	0.00	0.208	0.000	83.8	33	51.6	82.6	1404	1	100.0	60
04/16/19	2:00 p	63.2	63.2	60.0	40	38.5	6.0	WNW	6.00	17.0	W	63.2	60.5	60.5	30.175	0.00	0.00	0.075	0.000	85.1	35	54.4	84.3	1405	1	100.0	60
04/16/19	3:00 p	66.3	66.3	63.3	36	38.5	7.0	W	7.00	17.0	SW	66.3	63.3	63.3	30.141	0.00	0.00	0.000	0.054	86.6	36	56.5	86.1	1406	1	100.0	60
04/16/19	4:00 p	69.0	69.0	66.3	35	40.2	7.0	SW	7.00	19.0	SSW	69.0	66.0	66.0	30.108	0.00	0.00	0.000	0.167	91.1	33	58.0	90.9	1404	1	100.0	60
04/16/19	5:00 p	70.5	70.5	69.0	34	40.8	7.0	SW	7.00	20.0	SW	70.5	67.4	67.4	30.098	0.00	0.00	0.000	0.229	90.8	34	58.6	90.7	1405	1	100.0	60
04/16/19	6:00 p	71.0	71.0	70.6	30	38.0	7.0	SSW	7.00	19.0	SW	71.0	67.7	67.7	30.086	0.00	0.00	0.000	0.250	91.0	34	58.7	91.0	1406	1	100.0	60
04/16/19	7:00 p	71.0	71.0	71.0	33	40.4	10.0	SSW	10.00	18.0	SW	68.9	68.0	65.9	30.079	0.00	0.00	0.000	0.250	89.7	32	55.9	88.8	1404	1	100.0	60
04/16/19	8:00 p	66.1	71.0	66.1	37	39.1	6.0	SW	6.00	19.0	SW	66.1	63.2	63.2	30.088	0.00	0.00	0.000	0.046	88.1	31	53.7	86.1	1405	1	100.0	60
04/16/19	9:00 p	61.9	66.1	61.9	44	39.7	4.0	SSW	4.00	11.0	SW	61.9	59.5	59.5	30.101	0.00	0.00	0.129	0.000	86.7	32	53.3	85.3	1405	1	100.0	60
04/16/19	10:00 p	58.8	61.9	58.8	54	42.2	4.0	S	4.00	6.0	S	58.8	57.1	57.1	30.109	0.00	0.00	0.258	0.000	85.3	33	52.9	84.1	1405	1	100.0	60
04/16/19	11:00 p	56.2	58.8	56.2	58	41.6	5.0	S	5.00	12.0	SSW	55.5	54.8	54.1	30.103	0.00	0.00	0.367	0.000	84.0	32	51.0	82.7	1405	1	100.0	60
04/17/19	12:00 a	56.1	56.2	56.1	68	45.7	6.0	SSW	6.00	14.0	WSW	54.9	55.2	54.0	30.101	0.00	0.00	0.371	0.000	83.4	32	50.4	81.9	1406	1	100.0	60
WEDNESDAY		Temp	Hi	Low	Out	Dew	Wind	Wind	Wind	Hi	Hi	Wind	Heat	THW			Rain	Heat	Cool	In 	In	In 	In 	Wind	Wind	ISS 	Arc.
Date		Time	Out	Temp	Temp	Hum	Pt.	Speed	Dir	Run	Speed	Dir	Chill	Index	Index	Bar  	Rain	Rate	D-D 	D-D 	Temp	Hum	Dew	Heat	Samp	Tx 	Recept	Int.
04/17/19	1:00 a	55.2	56.1	55.2	75	47.4	7.0	SSW	7.00	19.0	SW	53.4	54.7	52.9	30.091	0.00	0.00	0.408	0.000	82.3	32	49.5	80.6	1402	1	100.0	60
04/17/19	2:00 a	54.3	55.2	54.3	75	46.5	7.0	SW	7.00	18.0	SW	52.4	53.8	51.9	30.075	0.00	0.00	0.446	0.000	81.3	33	49.4	79.6	1405	1	100.0	60
04/17/19	3:00 a	53.1	54.3	53.1	78	46.4	5.0	SW	5.00	12.0	SW	51.8	52.7	51.4	30.062	0.00	0.00	0.496	0.000	80.4	34	49.5	78.8	1405	1	100.0	60
04/17/19	4:00 a	52.1	53.1	52.1	81	46.4	5.0	SSW	5.00	12.0	SW	50.7	51.9	50.5	30.056	0.00	0.00	0.538	0.000	80.3	34	49.4	78.7	1405	1	100.0	60
04/17/19	5:00 a	51.8	52.2	51.7	84	47.1	5.0	WSW	5.00	10.0	SW	50.4	51.8	50.4	30.048	0.00	0.00	0.550	0.000	80.3	34	49.4	78.7	1405	1	100.0	60
04/17/19	6:00 a	52.5	52.5	51.7	83	47.5	5.0	SW	5.00	13.0	SW	51.2	52.4	51.1	30.053	0.00	0.00	0.521	0.000	79.4	34	48.6	78.0	1405	1	100.0	60
04/17/19	7:00 a	52.1	52.6	52.1	85	47.7	5.0	SW	5.00	13.0	SW	50.7	52.1	50.7	30.056	0.00	0.00	0.538	0.000	79.8	34	48.9	78.3	1405	1	100.0	60
04/17/19	8:00 a	53.6	53.6	52.0	85	49.2	5.0	SW	5.00	13.0	SSW	52.4	53.5	52.3	30.074	0.00	0.00	0.475	0.000	80.5	34	49.5	78.9	1405	1	100.0	60
04/17/19	9:00 a	60.4	60.4	53.6	73	51.7	5.0	SW	5.00	15.0	WNW	60.4	59.9	59.9	30.074	0.00	0.00	0.192	0.000	80.1	34	49.2	78.5	1405	1	100.0	60
04/17/19	10:00 a	65.8	65.8	60.4	59	51.1	6.0	W	6.00	16.0	WSW	65.8	65.0	65.0	30.064	0.00	0.00	0.000	0.033	81.2	34	50.2	79.6	1405	1	100.0	60
04/17/19	11:00 a	69.3	69.3	65.8	56	52.9	6.0	W	6.00	14.0	W	69.3	68.3	68.3	30.058	0.00	0.00	0.000	0.179	82.7	34	51.5	81.3	1405	1	100.0	60
04/17/19	12:00 p	73.7	73.7	69.3	48	52.8	5.0	WNW	5.00	12.0	WNW	73.7	73.2	73.2	30.055	0.00	0.00	0.000	0.362	84.2	35	53.6	83.5	1405	1	100.0	60
04/17/19	1:00 p	77.6	77.6	73.7	39	50.7	5.0	ENE	5.00	14.0	NE	77.6	76.7	76.7	30.045	0.00	0.00	0.000	0.525	86.3	33	53.8	85.2	1405	1	100.0	60
04/17/19	2:00 p	80.0	80.0	77.6	41	54.2	6.0	ENE	6.00	19.0	NE	80.0	79.1	79.1	30.036	0.00	0.00	0.000	0.625	88.4	33	55.6	86.9	1404	1	100.0	60
04/17/19	3:00 p	76.5	80.0	76.2	47	54.8	12.0	NE	12.00	21.0	NE	73.9	76.2	73.6	30.040	0.00	0.00	0.000	0.479	89.8	31	55.1	88.8	1405	1	100.0	60
04/17/19	4:00 p	75.5	76.8	75.5	47	53.9	7.0	ENE	7.00	19.0	SE	75.5	75.3	75.3	30.037	0.00	0.00	0.000	0.438	92.1	31	57.1	91.8	1405	1	100.0	60
04/17/19	5:00 p	73.0	75.5	73.0	46	51.0	7.0	SE	7.00	17.0	SE	73.0	72.2	72.2	30.027	0.00	0.00	0.000	0.333	92.9	32	58.7	93.1	1405	1	100.0	60
04/17/19	6:00 p	71.3	73.0	71.3	47	50.0	6.0	E	6.00	19.0	ENE	71.3	69.8	69.8	30.026	0.00	0.00	0.000	0.263	92.7	32	58.5	92.8	1405	1	100.0	60
04/17/19	7:00 p	69.2	71.3	69.2	53	51.3	5.0	SE	5.00	15.0	ENE	69.2	68.0	68.0	30.023	0.00	0.00	0.000	0.175	91.7	31	56.8	91.3	1405	1	100.0	60
04/17/19	8:00 p	64.5	69.2	64.5	68	53.7	5.0	ENE	5.00	15.0	NE	64.5	64.3	64.3	30.032	0.00	0.00	0.021	0.000	89.9	32	56.1	89.2	1405	1	100.0	60
04/17/19	9:00 p	61.4	64.5	61.4	74	53.0	5.0	ESE	5.00	13.0	S	61.4	61.1	61.1	30.058	0.00	0.00	0.150	0.000	88.4	32	54.8	86.7	1405	1	100.0	60
04/17/19	10:00 p	59.8	61.4	59.8	77	52.6	5.0	SE	5.00	13.0	E	59.8	59.5	59.5	30.062	0.00	0.00	0.217	0.000	86.9	33	54.3	85.7	1405	1	100.0	60
04/17/19	11:00 p	59.1	59.8	59.1	78	52.2	5.0	SE	5.00	13.0	ESE	58.9	58.8	58.6	30.057	0.00	0.00	0.246	0.000	85.7	34	54.1	84.8	1405	1	100.0	60
04/18/19	12:00 a	58.8	59.1	58.7	80	52.6	5.0	SE	5.00	13.0	SE	58.6	58.6	58.4	30.045	0.00	0.00	0.258	0.000	84.6	34	53.1	83.6	1405	1	100.0	60
THURSDAY		Temp	Hi	Low	Out	Dew	Wind	Wind	Wind	Hi	Hi	Wind	Heat	THW			Rain	Heat	Cool	In 	In	In 	In 	Wind	Wind	ISS 	Arc.
Date		Time	Out	Temp	Temp	Hum	Pt.	Speed	Dir	Run	Speed	Dir	Chill	Index	Index	Bar  	Rain	Rate	D-D 	D-D 	Temp	Hum	Dew	Heat	Samp	Tx 	Recept	Int.
04/18/19	1:00 a	59.0	59.0	58.7	85	54.5	6.0	SSE	6.00	12.0	SE	58.4	59.0	58.4	30.034	0.00	0.00	0.250	0.000	83.7	35	53.1	82.8	1404	1	100.0	60
04/18/19	2:00 a	59.5	59.5	59.0	87	55.6	5.0	S	5.00	11.0	S	59.4	59.6	59.5	30.028	0.00	0.00	0.229	0.000	82.9	35	52.4	81.7	1405	1	100.0	60
04/18/19	3:00 a	59.2	59.5	59.1	88	55.6	0.0	S	0.00	5.0	S	59.2	59.3	59.3	30.022	0.00	0.00	0.242	0.000	82.1	35	51.7	80.8	1404	1	100.0	60
04/18/19	4:00 a	58.3	59.2	58.3	90	55.4	4.0	S	4.00	7.0	S	58.3	58.4	58.4	30.007	0.00	0.00	0.279	0.000	81.4	36	51.9	80.1	1405	1	100.0	60
04/18/19	5:00 a	57.7	58.3	57.7	92	55.4	5.0	SSE	5.00	10.0	SSE	57.2	57.9	57.4	30.001	0.00	0.00	0.304	0.000	80.7	37	52.0	79.4	1405	1	100.0	60
04/18/19	6:00 a	57.4	57.8	57.4	93	55.4	4.0	SSE	4.00	7.0	SSE	57.4	57.6	57.6	30.008	0.00	0.00	0.317	0.000	80.0	38	52.1	78.8	1405	1	100.0	60
04/18/19	7:00 a	57.5	57.5	57.2	94	55.8	5.0	S	5.00	13.0	SSE	57.0	57.7	57.2	30.019	0.00	0.00	0.313	0.000	80.7	38	52.7	79.5	1405	1	100.0	60
04/18/19	8:00 a	59.5	59.5	57.5	92	57.2	6.0	S	6.00	14.0	S	59.0	59.8	59.3	30.029	0.00	0.00	0.229	0.000	80.4	38	52.5	79.2	1405	1	100.0	60
04/18/19	9:00 a	65.7	65.7	59.5	82	60.1	6.0	S	6.00	15.0	SSE	65.7	66.6	66.6	30.045	0.00	0.00	0.000	0.029	80.7	38	52.7	79.5	1405	1	100.0	60
04/18/19	10:00 a	73.3	73.3	65.7	70	62.9	7.0	SSW	7.00	17.0	SW	73.3	74.6	74.6	30.044	0.00	0.00	0.000	0.346	81.9	38	53.8	80.9	1405	1	100.0	60
04/18/19	11:00 a	76.8	76.8	73.4	62	62.8	10.0	SSW	10.00	21.0	SW	74.9	77.8	75.9	30.031	0.00	0.00	0.000	0.492	83.6	38	55.3	83.3	1405	1	100.0	60
04/18/19	12:00 p	78.9	78.9	76.8	58	62.9	11.0	SW	11.00	23.0	WSW	76.9	79.8	77.8	30.019	0.00	0.00	0.000	0.579	85.1	39	57.4	85.0	1405	1	100.0	60
04/18/19	1:00 p	80.4	80.4	78.9	47	58.3	11.0	SSW	11.00	22.0	SW	78.5	80.2	78.3	30.019	0.00	0.00	0.000	0.642	86.7	39	58.8	86.8	1405	1	100.0	60
04/18/19	2:00 p	81.7	81.7	80.4	41	55.7	11.0	SSW	11.00	24.0	S	80.0	81.0	79.3	29.993	0.00	0.00	0.000	0.696	88.4	38	59.6	88.3	1405	1	100.0	60
04/18/19	3:00 p	83.1	83.1	81.7	45	59.6	12.0	SSW	12.00	26.0	S	81.3	83.7	81.9	29.963	0.00	0.00	0.000	0.754	89.9	37	60.1	90.3	1405	1	100.0	60
04/18/19	4:00 p	84.5	84.5	83.1	46	61.4	13.0	S	13.00	31.0	SSE	82.8	85.7	84.0	29.932	0.00	0.00	0.000	0.813	93.2	35	61.5	94.3	1404	1	100.0	60
04/18/19	5:00 p	84.4	84.5	84.3	49	63.2	14.0	S	14.00	31.0	SSE	82.5	86.1	84.2	29.922	0.00	0.00	0.000	0.808	93.1	36	62.2	94.6	1405	1	100.0	60
04/18/19	6:00 p	84.5	84.5	84.3	52	64.9	14.0	S	14.00	29.0	SSE	82.6	86.7	84.8	29.909	0.00	0.00	0.000	0.813	93.3	35	61.6	94.4	1405	1	100.0	60
04/18/19	7:00 p	80.8	84.5	80.8	55	63.1	14.0	S	14.00	30.0	SSE	78.2	81.7	79.1	29.912	0.00	0.00	0.000	0.658	92.6	35	61.0	93.4	1406	1	100.0	60
04/18/19	8:00 p	75.7	80.7	75.7	63	62.2	13.0	S	13.00	27.0	S	72.6	76.7	73.6	29.918	0.00	0.00	0.000	0.446	91.7	36	61.0	92.5	1404	1	100.0	60
04/18/19	9:00 p	72.4	75.7	72.4	71	62.5	12.0	S	12.00	22.0	SSE	69.4	73.3	70.3	29.940	0.00	0.00	0.000	0.308	90.5	37	60.7	91.1	1405	1	100.0	60
04/18/19	10:00 p	70.5	72.4	70.5	76	62.6	13.0	S	13.00	28.0	S	67.0	71.3	67.8	29.946	0.00	0.00	0.000	0.229	89.4	37	59.7	89.6	1405	1	100.0	60
04/18/19	11:00 p	69.4	70.5	69.4	80	63.0	11.0	S	11.00	24.0	S	66.8	70.7	68.1	29.947	0.00	0.00	0.000	0.183	88.4	38	59.6	88.3	1405	1	100.0	60
04/19/19	12:00 a	68.5	69.4	68.5	82	62.8	10.0	S	10.00	20.0	S	66.4	70.0	67.9	29.945	0.00	0.00	0.000	0.146	87.5	39	59.5	87.5	1405	1	100.0	60
FRIDAY			Temp	Hi	Low	Out	Dew	Wind	Wind	Wind	Hi	Hi	Wind	Heat	THW			Rain	Heat	Cool	In 	In	In 	In 	Wind	Wind	ISS 	Arc.
Date		Time	Out	Temp	Temp	Hum	Pt.	Speed	Dir	Run	Speed	Dir	Chill	Index	Index	Bar  	Rain	Rate	D-D 	D-D 	Temp	Hum	Dew	Heat	Samp	Tx 	Recept	Int.
04/19/19	1:00 a	68.1	68.5	68.1	83	62.7	10.0	S	10.00	21.0	S	66.0	69.5	67.4	29.927	0.00	0.00	0.000	0.129	86.7	39	58.8	86.8	1404	1	100.0	60
04/19/19	2:00 a	67.5	68.1	67.5	84	62.5	10.0	S	10.00	22.0	SSE	65.5	68.9	66.9	29.908	0.00	0.00	0.000	0.104	86.2	39	58.3	86.2	1405	1	100.0	60
04/19/19	3:00 a	67.4	67.5	67.4	85	62.7	11.0	S	11.00	21.0	SSE	64.8	68.8	66.2	29.893	0.00	0.00	0.000	0.100	85.5	39	57.7	85.5	1405	1	100.0	60
04/19/19	4:00 a	67.2	67.4	67.1	88	63.5	10.0	S	10.00	18.0	SE	65.2	68.7	66.7	29.876	0.00	0.00	0.000	0.092	85.0	40	58.0	85.1	1404	1	100.0	60
04/19/19	5:00 a	68.0	68.0	67.2	87	64.0	11.0	S	11.00	23.0	SSE	65.4	69.6	67.0	29.861	0.00	0.00	0.000	0.125	84.4	40	57.4	84.6	1405	1	100.0	60
04/19/19	6:00 a	68.3	68.3	68.0	87	64.3	12.0	S	12.00	24.0	SSE	65.2	70.0	66.9	29.834	0.00	0.00	0.000	0.138	84.1	41	57.9	84.5	1405	1	100.0	60
04/19/19	7:00 a	69.4	69.4	68.3	86	65.0	12.0	S	12.00	25.0	S	66.3	71.1	68.0	29.830	0.00	0.00	0.000	0.183	83.9	41	57.7	84.3	1405	1	100.0	60
04/19/19	8:00 a	69.5	69.8	69.4	90	66.4	11.0	S	11.00	22.0	SSE	66.9	71.5	68.9	29.859	0.00	0.00	0.000	0.188	84.3	42	58.7	84.9	1405	1	100.0	60
04/19/19	9:00 a	67.7	69.5	67.7	96	66.5	7.0	SSW	7.00	18.0	W	67.7	69.5	69.5	29.858	0.14	0.35	0.000	0.112	84.2	42	58.6	84.8	1405	1	100.0	60
04/19/19	10:00 a	70.4	70.4	67.7	100	70.4	10.0	S	10.00	19.0	S	68.3	74.0	71.9	29.840	0.04	0.27	0.000	0.225	84.4	43	59.5	85.1	1405	1	100.0	60
04/19/19	11:00 a	72.8	72.8	70.4	98	72.2	12.0	S	12.00	25.0	S	69.8	76.1	73.1	29.827	0.00	0.00	0.000	0.325	85.3	43	60.3	86.0	1405	1	100.0	60
04/19/19	12:00 p	76.1	76.1	72.8	85	71.3	13.0	S	13.00	31.0	SSE	73.0	79.3	76.2	29.807	0.00	0.00	0.000	0.462	86.4	44	61.9	87.5	1405	1	100.0	60
04/19/19	1:00 p	78.7	78.7	76.2	77	70.9	15.0	S	15.00	31.0	SE	75.4	81.9	78.6	29.774	0.00	0.00	0.000	0.571	87.3	44	62.7	88.7	1405	1	100.0	60
04/19/19	2:00 p	79.1	79.8	78.7	81	72.8	14.0	S	14.00	32.0	S	76.2	83.2	80.3	29.753	0.02	0.25	0.000	0.587	87.9	44	63.3	89.3	1405	1	100.0	60
04/19/19	3:00 p	73.9	79.1	73.9	89	70.5	16.0	S	16.00	37.0	SSE	69.7	76.3	72.1	29.720	0.04	0.25	0.000	0.371	88.0	44	63.4	89.4	1405	1	100.0	60
04/19/19	4:00 p	74.0	74.0	73.8	89	70.6	15.0	S	15.00	35.0	S	70.1	76.4	72.5	29.685	0.00	0.00	0.000	0.375	87.9	44	63.3	89.3	1405	1	100.0	60
04/19/19	5:00 p	75.4	75.4	74.0	84	70.2	18.0	S	18.00	40.0	SSE	71.0	78.4	74.0	29.673	0.00	0.00	0.000	0.433	87.7	45	63.7	89.4	1405	1	100.0	60
04/19/19	6:00 p	76.4	76.5	75.4	83	70.9	17.0	S	17.00	39.0	SSE	72.3	79.6	75.5	29.675	0.00	0.00	0.000	0.475	87.9	45	63.9	89.6	1405	1	100.0	60
04/19/19	7:00 p	75.2	76.6	75.2	86	70.7	17.0	S	17.00	48.0	S	70.9	78.3	74.0	29.660	0.00	0.00	0.000	0.425	87.7	45	63.7	89.4	1405	1	100.0	60
04/19/19	8:00 p	74.6	75.1	74.6	86	70.1	17.0	S	17.00	43.0	SSE	70.3	77.3	73.0	29.647	0.00	0.00	0.000	0.400	87.6	46	64.3	89.6	1404	1	100.0	60
04/19/19	9:00 p	74.9	74.9	74.6	85	70.1	17.0	S	17.00	38.0	SSE	70.6	77.8	73.5	29.659	0.00	0.00	0.000	0.413	87.3	46	64.0	89.2	1405	1	100.0	60
04/19/19	10:00 p	71.1	75.0	71.1	95	69.6	12.0	S	12.00	31.0	SSE	68.0	73.8	70.7	29.672	0.21	0.35	0.000	0.254	87.0	46	63.7	88.9	1405	1	100.0	60
04/19/19	11:00 p	67.3	71.0	67.3	97	66.4	13.0	SSE	13.00	23.0	S	63.6	69.1	65.4	29.641	0.13	0.23	0.000	0.096	86.5	46	63.3	88.1	1405	1	100.0	60
04/20/19	12:00 a	66.7	67.3	66.6	99	66.4	12.0	S	12.00	20.0	S	63.4	68.4	65.1	29.656	0.04	0.07	0.000	0.071	86.1	46	62.9	87.5	1405	1	100.0	60
SATURDAY		Temp	Hi	Low	Out	Dew	Wind	Wind	Wind	Hi	Hi	Wind	Heat	THW			Rain	Heat	Cool	In 	In	In 	In 	Wind	Wind	ISS 	Arc.
Date		Time	Out	Temp	Temp	Hum	Pt.	Speed	Dir	Run	Speed	Dir	Chill	Index	Index	Bar  	Rain	Rate	D-D 	D-D 	Temp	Hum	Dew	Heat	Samp	Tx 	Recept	Int.
04/20/19	1:00 a	66.7	66.8	66.7	99	66.4	12.0	S	12.00	25.0	S	63.4	68.4	65.1	29.651	0.01	0.04	0.000	0.071	85.4	47	62.9	86.8	1404	1	100.0	60
04/20/19	2:00 a	66.8	66.8	66.7	100	66.8	13.0	S	13.00	24.0	SSE	63.1	68.5	64.8	29.631	0.00	0.00	0.000	0.075	84.9	48	63.0	86.4	1405	1	100.0	60
04/20/19	3:00 a	67.3	67.4	66.8	100	67.3	13.0	SSE	13.00	25.0	SSE	63.6	69.2	65.5	29.604	0.08	0.08	0.000	0.096	84.4	48	62.6	85.9	1405	1	100.0	60
04/20/19	4:00 a	68.1	68.1	67.4	100	68.1	12.0	SSE	12.00	26.0	SE	65.0	70.2	67.1	29.565	0.08	0.08	0.000	0.129	84.1	49	62.9	85.8	1405	1	100.0	60
04/20/19	5:00 a	67.5	68.7	67.5	99	67.2	12.0	S	12.00	26.0	SSE	64.4	69.4	66.3	29.588	0.08	0.08	0.000	0.104	83.9	50	63.3	85.6	1405	1	100.0	60
04/20/19	6:00 a	64.4	67.5	64.4	100	64.4	7.0	S	7.00	18.0	S	64.4	65.6	65.6	29.588	0.08	0.08	0.025	0.000	83.4	49	62.2	84.7	1405	1	100.0	60
04/20/19	7:00 a	63.7	64.5	63.6	100	63.7	7.0	S	7.00	17.0	SSE	63.7	64.8	64.8	29.627	0.01	0.00	0.054	0.000	83.1	49	62.0	84.2	1404	1	100.0	60
04/20/19	8:00 a	64.5	64.5	63.6	100	64.5	6.0	S	6.00	17.0	SSE	64.5	65.7	65.7	29.646	0.24	82.29	0.021	0.000	83.4	48	61.7	84.6	1399	1	100.0	60
04/20/19	9:00 a	63.8	64.9	63.8	99	63.5	7.0	S	7.00	20.0	SW	63.8	64.9	64.9	29.693	0.00	0.00	0.050	0.000	83.6	48	61.8	84.9	1402	1	100.0	60
04/20/19	10:00 a	60.2	63.8	60.1	99	59.9	7.0	SSW	7.00	22.0	SW	59.4	60.8	60.0	29.721	0.00	0.00	0.200	0.000	83.7	47	61.3	84.9	1405	1	100.0	60
04/20/19	11:00 a	61.0	61.7	60.2	95	59.6	11.0	SSW	11.00	23.0	SSE	57.5	61.5	58.0	29.732	0.00	0.00	0.167	0.000	84.2	45	60.6	85.3	1405	1	100.0	60
04/20/19	12:00 p	65.3	65.3	61.0	73	56.4	12.0	SSW	12.00	28.0	SW	61.8	65.5	62.0	29.744	0.00	0.00	0.000	0.013	84.9	42	59.2	85.4	1405	1	100.0	60
04/20/19	1:00 p	69.9	69.9	65.3	62	56.3	12.0	SSW	12.00	24.0	S	66.8	69.3	66.2	29.739	0.00	0.00	0.000	0.204	85.9	41	59.5	86.3	1405	1	100.0	60
04/20/19	2:00 p	71.4	71.5	69.9	56	54.9	12.0	SSW	12.00	24.0	S	68.3	70.7	67.6	29.733	0.00	0.00	0.000	0.267	86.6	39	58.7	86.7	1405	1	100.0	60
04/20/19	3:00 p	72.8	72.8	71.5	54	55.2	11.0	S	11.00	26.0	SSE	70.3	72.6	70.1	29.727	0.00	0.00	0.000	0.325	87.0	37	57.6	86.7	1405	1	100.0	60
04/20/19	4:00 p	73.5	73.6	72.8	50	53.7	12.0	SSW	12.00	24.0	SW	70.6	73.1	70.2	29.711	0.00	0.00	0.000	0.354	89.9	33	56.9	89.4	1405	1	100.0	60
04/20/19	5:00 p	73.3	73.6	73.1	50	53.5	11.0	S	11.00	27.0	SSE	70.8	72.9	70.4	29.727	0.00	0.00	0.000	0.346	89.1	33	56.2	88.0	1405	1	100.0	60
04/20/19	6:00 p	70.3	73.4	70.3	53	52.4	13.0	S	13.00	29.0	S	66.8	68.9	65.4	29.745	0.00	0.00	0.000	0.221	88.0	35	56.9	86.8	1405	1	100.0	60
04/20/19	7:00 p	70.1	70.3	69.9	50	50.6	12.0	S	12.00	29.0	S	67.0	68.4	65.3	29.762	0.00	0.00	0.000	0.212	87.2	35	56.2	86.3	1405	1	100.0	60
04/20/19	8:00 p	66.9	70.1	66.9	57	51.2	10.0	S	10.00	28.0	S	64.9	66.1	64.1	29.767	0.00	0.00	0.000	0.079	86.3	35	55.4	85.6	1405	1	100.0	60
04/20/19	9:00 p	63.6	66.9	63.6	65	51.6	7.0	S	7.00	19.0	SSE	63.6	63.1	63.1	29.789	0.00	0.00	0.058	0.000	85.2	37	56.0	84.8	1404	1	100.0	60
04/20/19	10:00 p	62.2	63.6	62.1	69	51.9	7.0	S	7.00	17.0	S	61.9	61.7	61.4	29.817	0.00	0.00	0.117	0.000	84.3	38	55.9	84.2	1405	1	100.0	60
04/20/19	11:00 p	61.4	62.2	61.4	70	51.5	6.0	SW	6.00	16.0	SW	61.3	60.8	60.7	29.838	0.00	0.00	0.150	0.000	83.4	39	55.8	83.2	1405	1	100.0	60
04/21/19	12:00 a	60.5	61.4	60.5	73	51.8	5.0	SW	5.00	16.0	WNW	60.5	60.1	60.1	29.858	0.00	0.00	0.188	0.000	83.0	39	55.5	82.5	1405	1	100.0	60
SUNDAY			Temp	Hi	Low	Out	Dew	Wind	Wind	Wind	Hi	Hi	Wind	Heat	THW			Rain	Heat	Cool	In 	In	In 	In 	Wind	Wind	ISS 	Arc.
Date		Time	Out	Temp	Temp	Hum	Pt.	Speed	Dir	Run	Speed	Dir	Chill	Index	Index	Bar  	Rain	Rate	D-D 	D-D 	Temp	Hum	Dew	Heat	Samp	Tx 	Recept	Int.
04/21/19	1:00 a	58.9	60.5	58.9	74	50.6	6.0	W	6.00	16.0	WSW	58.3	58.4	57.8	29.882	0.00	0.00	0.254	0.000	82.6	39	55.1	82.0	1404	1	100.0	60
04/21/19	2:00 a	56.8	58.9	56.8	76	49.3	5.0	SW	5.00	15.0	WSW	56.2	56.3	55.7	29.880	0.00	0.00	0.342	0.000	81.9	39	54.5	81.1	1405	1	100.0	60
04/21/19	3:00 a	55.9	56.8	55.9	78	49.1	5.0	SW	5.00	12.0	SW	55.2	55.5	54.8	29.901	0.00	0.00	0.379	0.000	81.2	39	53.9	80.2	1405	1	100.0	60
04/21/19	4:00 a	53.6	55.9	53.6	82	48.2	4.0	SW	4.00	7.0	SW	53.0	53.4	52.8	29.917	0.00	0.00	0.475	0.000	80.4	39	53.2	79.3	1405	1	100.0	60
04/21/19	5:00 a	52.6	53.6	52.6	87	48.8	4.0	SW	4.00	7.0	SW	51.9	52.6	51.9	29.921	0.00	0.00	0.517	0.000	79.6	40	53.1	78.7	1405	1	100.0	60
04/21/19	6:00 a	53.1	53.2	52.6	89	49.9	4.0	SW	4.00	6.0	SW	52.4	53.2	52.5	29.937	0.00	0.00	0.496	0.000	79.1	40	52.7	78.3	1405	1	100.0	60
04/21/19	7:00 a	53.6	53.6	53.2	88	50.1	4.0	SSW	4.00	11.0	S	53.0	53.6	53.0	29.953	0.00	0.00	0.475	0.000	78.8	40	52.4	78.0	1405	1	100.0	60
04/21/19	8:00 a	54.4	54.4	53.6	86	50.3	5.0	SW	5.00	14.0	SSW	53.4	54.3	53.3	29.973	0.00	0.00	0.442	0.000	79.4	40	53.0	78.5	1404	1	100.0	60
04/21/19	9:00 a	59.6	59.6	54.4	79	53.1	6.0	SW	6.00	13.0	SSE	59.1	59.4	58.9	29.986	0.00	0.00	0.225	0.000	79.7	39	52.5	78.7	1405	1	100.0	60
04/21/19	10:00 a	64.9	64.9	59.6	66	53.3	6.0	S	6.00	15.0	SSE	64.9	64.6	64.6	30.001	0.00	0.00	0.004	0.000	80.4	39	53.2	79.3	1405	1	100.0	60
04/21/19	11:00 a	65.1	65.4	64.8	62	51.8	7.0	S	7.00	20.0	S	65.1	64.5	64.5	30.000	0.00	0.00	0.000	0.004	81.6	38	53.5	80.6	1405	1	100.0	60
04/21/19	12:00 p	66.3	66.3	65.1	57	50.6	10.0	S	10.00	19.0	SW	64.3	65.4	63.4	29.991	0.00	0.00	0.000	0.054	82.5	36	52.9	81.4	1405	1	100.0	60
04/21/19	1:00 p	68.8	68.8	66.3	55	52.0	10.0	S	10.00	18.0	SSW	66.7	67.8	65.7	29.976	0.00	0.00	0.000	0.158	82.8	35	52.3	81.6	1405	1	100.0	60
04/21/19	2:00 p	68.8	70.3	68.8	50	49.4	7.0	S	7.00	17.0	SSE	68.8	67.4	67.4	29.974	0.00	0.00	0.000	0.158	84.5	36	54.6	83.9	1405	1	100.0	60
04/21/19	3:00 p	69.2	69.9	68.8	54	51.8	6.0	S	6.00	15.0	WNW	69.2	68.1	68.1	29.978	0.00	0.00	0.000	0.175	85.1	36	55.1	84.5	1405	1	100.0	60
04/21/19	4:00 p	66.2	69.2	66.2	58	51.0	6.0	NNW	6.00	15.0	WNW	66.2	65.4	65.4	29.966	0.00	0.00	0.000	0.050	85.1	36	55.1	84.5	1405	1	100.0	60
04/21/19	5:00 p	64.9	66.2	64.9	60	50.7	6.0	NE	6.00	14.0	NW	64.9	64.1	64.1	29.979	0.00	0.00	0.004	0.000	84.3	36	54.4	83.8	1405	1	100.0	60
04/21/19	6:00 p	64.1	64.9	64.0	59	49.5	6.0	NNW	6.00	15.0	NW	64.1	63.1	63.1	29.988	0.00	0.00	0.038	0.000	83.7	36	53.9	83.0	1405	1	100.0	60
04/21/19	7:00 p	65.0	65.5	64.0	60	50.8	6.0	NE	6.00	14.0	NE	65.0	64.2	64.2	29.994	0.00	0.00	0.000	0.000	83.5	36	53.7	82.7	1405	1	100.0	60
04/21/19	8:00 p	62.3	65.0	62.3	65	50.4	6.0	ENE	6.00	14.0	E	62.3	61.6	61.6	30.000	0.00	0.00	0.113	0.000	82.8	36	53.1	81.7	1405	1	100.0	60
04/21/19	9:00 p	60.1	62.3	60.1	70	50.3	0.0	NE	0.00	6.0	NE	60.1	59.5	59.5	30.026	0.00	0.00	0.204	0.000	82.0	37	53.2	80.9	1405	1	100.0	60
04/21/19	10:00 p	58.7	60.1	58.7	76	51.2	0.0	NE	0.00	5.0	NE	58.7	58.3	58.3	30.035	0.00	0.00	0.262	0.000	81.0	38	53.0	79.8	1405	1	100.0	60
04/21/19	11:00 p	58.6	58.7	58.6	80	52.4	0.0	NE	0.00	3.0	NE	58.6	58.4	58.4	30.033	0.00	0.00	0.267	0.000	80.4	39	53.2	79.3	1404	1	100.0	60
04/22/19	12:00 a	58.4	58.6	58.4	81	52.6	0.0	N	0.00	6.0	N	58.4	58.2	58.2	30.037	0.00	0.00	0.275	0.000	80.4	38	52.5	79.2	1405	1	100.0	60
MONDAY			Temp	Hi	Low	Out	Dew	Wind	Wind	Wind	Hi	Hi	Wind	Heat	THW			Rain	Heat	Cool	In 	In	In 	In 	Wind	Wind	ISS 	Arc.
Date		Time	Out	Temp	Temp	Hum	Pt.	Speed	Dir	Run	Speed	Dir	Chill	Index	Index	Bar  	Rain	Rate	D-D 	D-D 	Temp	Hum	Dew	Heat	Samp	Tx 	Recept	Int.
04/22/19	1:00 a	58.3	58.5	58.3	83	53.2	0.0	N	0.00	4.0	N	58.3	58.2	58.2	30.032	0.00	0.00	0.279	0.000	80.1	39	52.9	79.0	1403	1	100.0	60
04/22/19	2:00 a	57.8	58.3	57.8	85	53.3	0.0	N	0.00	6.0	N	57.8	57.7	57.7	30.024	0.00	0.00	0.300	0.000	79.7	39	52.5	78.7	1405	1	100.0	60
04/22/19	3:00 a	57.6	57.8	57.6	86	53.4	4.0	WNW	4.00	6.0	N	57.6	57.5	57.5	30.006	0.00	0.00	0.308	0.000	80.1	39	52.9	79.0	1405	1	100.0	60
04/22/19	4:00 a	57.6	57.7	57.5	87	53.8	4.0	W	4.00	7.0	WNW	57.6	57.6	57.6	30.011	0.00	0.00	0.308	0.000	79.5	39	52.4	78.5	1405	1	100.0	60
04/22/19	5:00 a	57.5	57.6	57.5	88	54.0	4.0	W	4.00	6.0	W	57.5	57.5	57.5	30.020	0.00	0.00	0.313	0.000	79.0	39	51.9	78.1	1405	1	100.0	60
04/22/19	6:00 a	57.5	57.6	57.4	85	53.0	5.0	W	5.00	19.0	NW	57.0	57.4	56.9	30.032	0.00	0.00	0.313	0.000	79.8	39	52.6	78.7	1405	1	100.0	60
04/22/19	7:00 a	58.3	58.3	57.5	81	52.5	7.0	NNW	7.00	16.0	NNW	57.2	58.1	57.0	30.057	0.00	0.00	0.279	0.000	79.6	39	52.5	78.6	1405	1	100.0	60
04/22/19	8:00 a	59.3	59.3	58.3	76	51.7	10.0	NW	10.00	21.0	NW	56.2	58.9	55.8	30.084	0.00	0.00	0.238	0.000	79.2	39	52.1	78.3	1405	1	100.0	60
04/22/19	9:00 a	59.2	59.6	59.2	75	51.3	12.0	NW	12.00	22.0	NNW	54.8	58.7	54.3	30.094	0.00	0.00	0.242	0.000	79.1	39	52.0	78.2	1405	1	100.0	60
04/22/19	10:00 a	60.2	60.2	59.2	74	51.9	11.0	NNW	11.00	21.0	NNW	56.5	59.8	56.1	30.097	0.00	0.00	0.200	0.000	79.4	39	52.3	78.4	1404	1	100.0	60
04/22/19	11:00 a	61.9	61.9	60.2	72	52.8	11.0	NW	11.00	20.0	NNW	58.5	61.5	58.1	30.102	0.00	0.00	0.129	0.000	80.1	39	52.9	79.0	1405	1	100.0	60
04/22/19	12:00 p	63.9	63.9	61.9	69	53.5	10.0	NW	10.00	19.0	NNW	61.5	63.6	61.2	30.092	0.00	0.00	0.046	0.000	81.2	39	53.9	80.2	1405	1	100.0	60
04/22/19	1:00 p	65.7	65.8	63.9	67	54.4	11.0	NNW	11.00	22.0	N	62.9	65.6	62.8	30.096	0.00	0.00	0.000	0.029	82.4	38	54.2	81.6	1405	1	100.0	60
04/22/19	2:00 p	67.6	67.6	65.7	62	54.1	12.0	NW	12.00	22.0	W	64.5	67.4	64.3	30.082	0.00	0.00	0.000	0.108	83.9	38	55.6	83.7	1405	1	100.0	60
04/22/19	3:00 p	69.2	69.3	67.6	55	52.3	13.0	NNW	13.00	25.0	NNW	65.6	68.1	64.5	30.068	0.00	0.00	0.000	0.175	85.3	37	56.1	84.9	1405	1	100.0	60
04/22/19	4:00 p	69.6	69.6	68.7	56	53.2	11.0	NW	11.00	21.0	N	67.0	68.5	65.9	30.049	0.00	0.00	0.000	0.192	87.7	35	56.7	86.6	1405	1	100.0	60
04/22/19	5:00 p	72.4	72.4	69.5	52	53.8	7.0	NW	7.00	17.0	NW	72.4	71.8	71.8	30.042	0.00	0.00	0.000	0.308	88.0	35	56.9	86.8	1405	1	100.0	60
04/22/19	6:00 p	73.8	73.9	72.4	45	51.1	10.0	WNW	10.00	20.0	NNW	71.8	73.1	71.1	30.039	0.00	0.00	0.000	0.367	88.6	35	57.4	87.7	1405	1	100.0	60
04/22/19	7:00 p	72.2	73.9	72.2	48	51.4	7.0	NW	7.00	17.0	NNW	72.2	71.2	71.2	30.047	0.00	0.00	0.000	0.300	88.0	36	57.7	87.1	1405	1	100.0	60
04/22/19	8:00 p	69.9	72.2	69.9	52	51.5	5.0	W	5.00	13.0	W	69.9	68.4	68.4	30.057	0.00	0.00	0.000	0.204	87.5	36	57.3	86.8	1405	1	100.0	60
04/22/19	9:00 p	67.2	69.8	67.2	57	51.4	0.0	W	0.00	6.0	W	67.2	66.5	66.5	30.070	0.00	0.00	0.000	0.092	86.4	37	57.0	86.1	1405	1	100.0	60
04/22/19	10:00 p	63.0	67.2	63.0	68	52.3	0.0	W	0.00	4.0	W	63.0	62.6	62.6	30.082	0.00	0.00	0.083	0.000	85.4	37	56.2	85.0	1405	1	100.0	60
04/22/19	11:00 p	60.1	63.0	60.1	74	51.8	0.0	W	0.00	4.0	W	60.1	59.7	59.7	30.078	0.00	0.00	0.204	0.000	84.3	37	55.2	84.0	1405	1	100.0	60
04/23/19	12:00 a	57.6	60.1	57.5	80	51.5	0.0	W	0.00	4.0	W	57.6	57.4	57.4	30.085	0.00	0.00	0.308	0.000	83.4	38	55.1	83.0	1404	1	100.0	60
TUESDAY			Temp	Hi	Low	Out	Dew	Wind	Wind	Wind	Hi	Hi	Wind	Heat	THW			Rain	Heat	Cool	In 	In	In 	In 	Wind	Wind	ISS 	Arc.
Date		Time	Out	Temp	Temp	Hum	Pt.	Speed	Dir	Run	Speed	Dir	Chill	Index	Index	Bar  	Rain	Rate	D-D 	D-D 	Temp	Hum	Dew	Heat	Samp	Tx 	Recept	Int.
04/23/19	1:00 a	55.6	57.5	55.6	85	51.2	0.0	---	0.00	0.0	---	55.6	55.5	55.5	30.082	0.00	0.00	0.392	0.000	82.4	38	54.2	81.6	1403	1	100.0	60
04/23/19	2:00 a	54.0	55.6	54.0	89	50.8	0.0	W	0.00	5.0	W	54.0	54.1	54.1	30.074	0.00	0.00	0.458	0.000	81.9	38	53.8	80.9	1405	1	100.0	60
04/23/19	3:00 a	53.2	54.0	53.2	90	50.3	0.0	W	0.00	5.0	W	53.2	53.3	53.3	30.061	0.00	0.00	0.492	0.000	80.9	38	52.9	79.7	1405	1	100.0	60
04/23/19	4:00 a	52.5	53.2	52.5	90	49.7	4.0	W	4.00	5.0	W	51.8	52.6	51.9	30.056	0.00	0.00	0.521	0.000	80.9	38	52.9	79.7	1405	1	100.0	60
04/23/19	5:00 a	51.9	52.5	51.8	91	49.4	4.0	W	4.00	5.0	W	51.1	52.1	51.3	30.055	0.00	0.00	0.546	0.000	79.8	38	51.9	78.6	1405	1	100.0	60
04/23/19	6:00 a	51.3	51.8	51.3	92	49.1	4.0	W	4.00	5.0	W	50.4	51.6	50.7	30.059	0.00	0.00	0.571	0.000	79.7	38	51.8	78.6	1405	1	100.0	60
04/23/19	7:00 a	51.1	51.3	51.0	93	49.1	4.0	W	4.00	5.0	W	50.1	51.4	50.4	30.070	0.00	0.00	0.579	0.000	80.0	38	52.1	78.8	1405	1	100.0	60
04/23/19	8:00 a	53.8	53.8	51.1	93	51.8	4.0	W	4.00	7.0	W	53.3	54.0	53.5	30.077	0.00	0.00	0.467	0.000	79.4	38	51.6	78.3	1405	1	100.0	60
04/23/19	9:00 a	65.1	65.1	53.9	69	54.7	5.0	W	5.00	13.0	WSW	65.1	65.1	65.1	30.076	0.00	0.00	0.000	0.004	80.0	38	52.1	78.8	1405	1	100.0	60
04/23/19	10:00 a	72.2	72.2	65.1	55	55.1	6.0	W	6.00	13.0	NW	72.2	71.8	71.8	30.073	0.00	0.00	0.000	0.300	81.5	39	54.2	80.5	1405	1	100.0	60
04/23/19	11:00 a	74.5	74.5	72.2	48	53.5	6.0	WSW	6.00	14.0	WNW	74.5	74.3	74.3	30.064	0.00	0.00	0.000	0.396	83.3	40	56.5	83.2	1404	1	100.0	60
04/23/19	12:00 p	75.3	75.3	74.5	45	52.5	7.0	W	7.00	18.0	WSW	75.3	75.0	75.0	30.047	0.00	0.00	0.000	0.429	84.7	39	57.0	84.7	1405	1	100.0	60
04/23/19	1:00 p	77.4	77.4	75.3	42	52.5	6.0	WSW	6.00	19.0	SW	77.4	76.7	76.7	30.017	0.00	0.00	0.000	0.517	86.4	39	58.5	86.5	1405	1	100.0	60
04/23/19	2:00 p	79.3	79.3	77.4	47	57.3	6.0	SW	6.00	17.0	SW	79.3	79.2	79.2	29.988	0.00	0.00	0.000	0.596	88.3	39	60.2	88.4	1405	1	100.0	60
04/23/19	3:00 p	80.9	80.9	79.3	41	55.0	7.0	SW	7.00	17.0	SSE	80.9	80.0	80.0	29.959	0.00	0.00	0.000	0.663	90.2	39	61.9	91.3	1405	1	100.0	60
04/23/19	4:00 p	82.8	82.8	80.9	41	56.7	7.0	SSW	7.00	20.0	SW	82.8	82.6	82.6	29.925	0.00	0.00	0.000	0.742	94.2	37	63.9	96.8	1405	1	100.0	60
04/23/19	5:00 p	83.4	83.4	82.8	39	55.8	10.0	S	10.00	19.0	SW	82.2	83.2	82.0	29.909	0.00	0.00	0.000	0.767	94.1	34	61.4	95.3	1405	1	100.0	60
04/23/19	6:00 p	84.8	84.8	83.3	40	57.8	10.0	SSW	10.00	19.0	SSE	83.9	84.9	84.0	29.913	0.00	0.00	0.000	0.825	94.2	33	60.7	95.1	1405	1	100.0	60
04/23/19	7:00 p	82.9	85.0	82.9	41	56.8	10.0	SSW	10.00	22.0	WSW	81.7	82.7	81.5	29.901	0.00	0.00	0.000	0.746	93.2	32	59.0	93.5	1405	1	100.0	60
04/23/19	8:00 p	78.2	82.9	78.2	46	55.7	5.0	SSW	5.00	15.0	SSE	78.2	77.9	77.9	29.893	0.00	0.00	0.000	0.550	92.2	33	58.9	92.4	1405	1	100.0	60
04/23/19	9:00 p	73.3	78.2	73.3	57	57.1	6.0	S	6.00	13.0	SSW	73.3	73.5	73.5	29.899	0.00	0.00	0.000	0.346	91.0	34	58.7	91.0	1405	1	100.0	60
04/23/19	10:00 p	69.5	73.3	69.5	66	57.6	7.0	S	7.00	19.0	SSE	69.5	69.4	69.4	29.889	0.00	0.00	0.000	0.188	89.7	35	58.4	89.4	1405	1	100.0	60
04/23/19	11:00 p	67.2	69.5	67.2	70	57.1	7.0	S	7.00	17.0	SSE	67.2	67.6	67.6	29.873	0.00	0.00	0.000	0.092	88.5	35	57.4	87.6	1405	1	100.0	60
04/24/19	12:00 a	66.1	67.2	66.0	71	56.4	7.0	SSW	7.00	19.0	SSE	66.1	66.4	66.4	29.869	0.00	0.00	0.000	0.046	87.3	36	57.1	86.6	1405	1	100.0	60
WEDNESDAY		Temp	Hi	Low	Out	Dew	Wind	Wind	Wind	Hi	Hi	Wind	Heat	THW			Rain	Heat	Cool	In 	In	In 	In 	Wind	Wind	ISS 	Arc.
Date		Time	Out	Temp	Temp	Hum	Pt.	Speed	Dir	Run	Speed	Dir	Chill	Index	Index	Bar  	Rain	Rate	D-D 	D-D 	Temp	Hum	Dew	Heat	Samp	Tx 	Recept	Int.
04/24/19	1:00 a	65.0	66.1	65.0	73	56.1	6.0	SSW	6.00	16.0	SSE	65.0	65.2	65.2	29.859	0.00	0.00	0.000	0.000	86.1	37	56.8	85.8	1403	1	100.0	60
04/24/19	2:00 a	64.1	65.0	64.1	75	56.0	7.0	SSW	7.00	15.0	WSW	64.1	64.2	64.2	29.847	0.00	0.00	0.038	0.000	85.2	37	56.0	84.8	1405	1	100.0	60
04/24/19	3:00 a	63.6	64.1	63.6	77	56.3	6.0	SSW	6.00	18.0	SW	63.6	63.8	63.8	29.825	0.00	0.00	0.058	0.000	84.4	37	55.3	84.0	1405	1	100.0	60
04/24/19	4:00 a	63.7	64.0	63.6	77	56.4	7.0	SSW	7.00	19.0	SW	63.7	63.9	63.9	29.811	0.00	0.00	0.054	0.000	83.7	38	55.4	83.4	1405	1	100.0	60
04/24/19	5:00 a	63.2	63.7	63.2	79	56.6	7.0	SSW	7.00	21.0	SSW	63.1	63.5	63.4	29.804	0.00	0.00	0.075	0.000	83.5	38	55.2	83.1	1405	1	100.0	60
04/24/19	6:00 a	62.4	63.2	62.4	81	56.5	7.0	SW	7.00	22.0	SW	62.2	62.7	62.5	29.808	0.00	0.00	0.108	0.000	83.0	38	54.8	82.3	1405	1	100.0	60
04/24/19	7:00 a	61.7	62.4	61.6	85	57.1	6.0	SW	6.00	16.0	WSW	61.6	62.0	61.9	29.829	0.00	0.00	0.137	0.000	82.6	38	54.4	81.8	1405	1	100.0	60
04/24/19	8:00 a	62.9	62.9	61.7	86	58.6	6.0	SW	6.00	16.0	SSW	62.9	63.4	63.4	29.843	0.00	0.00	0.087	0.000	82.7	38	54.5	82.0	1405	1	100.0	60
04/24/19	9:00 a	69.7	69.7	62.9	74	61.0	6.0	SW	6.00	17.0	SW	69.7	70.3	70.3	29.850	0.00	0.00	0.000	0.196	83.1	38	54.9	82.5	1405	1	100.0	60
04/24/19	10:00 a	73.4	73.4	69.8	68	62.2	6.0	SW	6.00	16.0	W	73.4	74.5	74.5	29.855	0.00	0.00	0.000	0.350	83.9	38	55.6	83.7	1405	1	100.0	60
04/24/19	11:00 a	76.4	76.4	73.4	61	62.0	6.0	SW	6.00	16.0	WSW	76.4	77.2	77.2	29.860	0.00	0.00	0.000	0.475	85.0	39	57.3	84.9	1405	1	100.0	60
04/24/19	12:00 p	79.0	79.1	76.4	56	62.0	7.0	WSW	7.00	18.0	NW	79.0	79.7	79.7	29.842	0.00	0.00	0.000	0.583	86.4	39	58.5	86.5	1405	1	100.0	60
04/24/19	1:00 p	81.6	81.6	79.1	53	62.8	6.0	WNW	6.00	15.0	W	81.6	82.5	82.5	29.829	0.00	0.00	0.000	0.692	88.3	39	60.2	88.4	1405	1	100.0	60
04/24/19	2:00 p	83.2	83.3	81.6	50	62.6	10.0	WNW	10.00	20.0	WNW	82.0	84.5	83.3	29.815	0.00	0.00	0.000	0.758	90.4	39	62.1	91.6	1404	1	100.0	60
04/24/19	3:00 p	84.3	84.3	83.2	47	61.9	7.0	WNW	7.00	21.0	NW	84.3	85.7	85.7	29.801	0.00	0.00	0.000	0.804	92.2	39	63.7	94.5	1405	1	100.0	60
04/24/19	4:00 p	85.6	85.8	84.3	46	62.4	11.0	WNW	11.00	22.0	NW	84.5	86.9	85.8	29.783	0.00	0.00	0.000	0.858	95.7	37	65.3	99.4	1406	1	100.0	60
04/24/19	5:00 p	81.6	85.6	81.6	54	63.3	10.0	NE	10.00	18.0	N	80.2	82.6	81.2	29.802	0.00	0.00	0.000	0.692	96.0	37	65.5	100.0	1404	1	100.0	60
04/24/19	6:00 p	81.0	81.9	81.0	57	64.3	7.0	NNW	7.00	17.0	NNW	81.0	82.2	82.2	29.815	0.00	0.00	0.000	0.667	96.4	37	65.9	100.7	1405	1	100.0	60
04/24/19	7:00 p	76.7	80.9	76.7	61	62.2	7.0	NNW	7.00	16.0	NW	76.7	77.6	77.6	29.826	0.00	0.00	0.000	0.487	95.5	36	64.3	98.4	1405	1	100.0	60
04/24/19	8:00 p	73.9	76.7	73.8	66	61.8	6.0	NE	6.00	13.0	ENE	73.9	75.1	75.1	29.829	0.00	0.00	0.000	0.371	93.7	36	62.7	95.5	1405	1	100.0	60
04/24/19	9:00 p	72.1	73.9	72.1	71	62.2	4.0	ENE	4.00	10.0	NE	72.1	72.9	72.9	29.849	0.00	0.00	0.000	0.296	92.3	37	62.3	93.8	1405	1	100.0	60
04/24/19	10:00 p	70.7	72.2	70.7	72	61.2	4.0	ENE	4.00	7.0	ENE	70.7	71.2	71.2	29.856	0.00	0.00	0.000	0.237	90.8	37	60.9	91.6	1405	1	100.0	60
04/24/19	11:00 p	68.7	70.7	68.7	75	60.5	4.0	ENE	4.00	6.0	E	68.7	69.7	69.7	29.861	0.00	0.00	0.000	0.154	89.6	38	60.6	90.1	1405	1	100.0	60
04/25/19	12:00 a	67.2	68.7	67.2	78	60.1	0.0	E	0.00	6.0	E	67.2	68.2	68.2	29.864	0.00	0.00	0.000	0.092	88.4	38	59.6	88.3	1405	1	100.0	60
THURSDAY		Temp	Hi	Low	Out	Dew	Wind	Wind	Wind	Hi	Hi	Wind	Heat	THW			Rain	Heat	Cool	In 	In	In 	In 	Wind	Wind	ISS 	Arc.
Date		Time	Out	Temp	Temp	Hum	Pt.	Speed	Dir	Run	Speed	Dir	Chill	Index	Index	Bar  	Rain	Rate	D-D 	D-D 	Temp	Hum	Dew	Heat	Samp	Tx 	Recept	Int.
04/25/19	1:00 a	66.5	67.2	66.5	80	60.1	0.0	E	0.00	6.0	E	66.5	67.5	67.5	29.858	0.00	0.00	0.000	0.063	87.5	39	59.5	87.5	1404	1	100.0	60
04/25/19	2:00 a	66.1	66.5	66.1	82	60.4	0.0	ESE	0.00	6.0	E	66.1	67.1	67.1	29.856	0.00	0.00	0.000	0.046	86.8	39	58.9	86.9	1404	1	100.0	60
04/25/19	3:00 a	65.6	66.1	65.6	83	60.3	0.0	ESE	0.00	10.0	SSE	65.6	66.5	66.5	29.839	0.00	0.00	0.000	0.025	86.2	39	58.3	86.2	1405	1	100.0	60
04/25/19	4:00 a	65.2	65.6	65.2	84	60.2	0.0	SSE	0.00	7.0	SSE	65.2	66.0	66.0	29.834	0.00	0.00	0.000	0.008	85.5	39	57.7	85.5	1405	1	100.0	60
04/25/19	5:00 a	64.3	65.2	64.3	84	59.4	0.0	SSE	0.00	5.0	SSE	64.3	64.9	64.9	29.838	0.00	0.00	0.029	0.000	84.8	40	57.8	84.9	1405	1	100.0	60
 
			Temp	Hi	Low	Out	Dew	Wind	Wind	Wind	Hi	Hi	Wind	Heat	THW			Rain	Heat	Cool	In 	In	In 	In 	Wind	Wind	ISS 	Arc.
Date		Time	Out	Temp	Temp	Hum	Pt.	Speed	Dir	Run	Speed	Dir	Chill	Index	Index	Bar  	Rain	Rate	D-D 	D-D 	Temp	Hum	Dew	Heat	Samp	Tx 	Recept	Int.
-----------------------------------------------------------------------------------------------------------------------------------------------------------------------------------